<?xml version="1.0" encoding="UTF-8" standalone="no" ?>
<gpx xmlns="http://www.topografix.com/GPX/1/1" xmlns:xsi="http://www.w3.org/2001/XMLSchema-instance" xsi:schemaLocation="http://www.topografix.com/GPX/1/1 http://www.topografix.com/GPX/1/1/gpx.xsd" version="1.1" creator="VisuGPX - https://www.visugpx.com">
  <metadata>
    <name>Claret * Tête du Bousier</name>
    <desc><![CDATA[Départ Claret - Tête du Bousier
En route pour les Pivoines]]></desc>
  </metadata>
  <trk>
    <name><![CDATA[20180518  tête de Boursier]]></name>
    <desc><![CDATA[Vous connaissez les "happy few" ? Ces chanceux que la vie a bien gâté et​ qui​
font beaucoup d'envieux ! 
Hé bien... Ils étaient 21 ce matin à Véragne ! Sans le savoir, nous allions vivre un vrai bonheur sur la rando de Marie France​.
Au programme tête de Boursier avec les pivoines et les fraxinelles. 
Départ Claret ; il est 8h15 ; le sentier chemine sur les marnes puis dans un sous-bois de fayards ; la pente est bien raide nous dit Monique qui se demande bien ce qu'elle fait dans cette galère ; pas le temps de voir les magnifiques panorama s'étaler vers Crigne, Gap, la vallée de la Durance ; enfin la clairière et déjà quelques beaux bouquets de pivoines ; une pause bien appréciée ! Nous avons pris 570m de dénivelé positif en 2h de marche ; la tête de Boursier et sa crête  ​sont ​
 250​​m​ plus haut​
; nickel pour notre pique nique de midi ! 
Dès l'arrivée sur le sommet, la fatigue des jambes est vite oubliée ​: les pivoines sont bien au rendez-vous ; en boutons ou épanouies, en bouquets multiples, groupées sur la pente Sud ; en poursuivant sur la crête elles sont de part et d'autre du sentier ; un ravissement ; Annie a fait la route depuis Marseille pour le tableau, et elle ne regrette rien !
​P​
lus loin​, toujours sur la crête,
 côté Nord​,​
nous découvrons les fraxinelles ; juste à point ; la plus part en boutons ; quelques unes en pleine fleur ! 
​Merveilleuses fleurs ; d'autant plus appréciées qu'elles sont très rares... Vous avez déjà vu des fraxinelles cher lecteur ?​ ​
Pour un certain nombre d'entre nous, c'est une première ; y compris Henriette la locale de la rando !...

Mais pour tous les pivoines à Boursier c'est le pied !]]></desc>
    <trkseg>
      <trkpt lat="44.37191" lon="5.95609">
        <ele>693.79998779297</ele>
        <time>2018-05-16T06:05:39.000Z</time>
      </trkpt>
      <trkpt lat="44.3719" lon="5.95621">
        <ele>691.59997558594</ele>
        <time>2018-05-16T06:05:48.000Z</time>
      </trkpt>
      <trkpt lat="44.37183" lon="5.95636">
        <ele>690</ele>
        <time>2018-05-16T06:06:00.000Z</time>
      </trkpt>
      <trkpt lat="44.37184" lon="5.95667">
        <ele>688.40002441406</ele>
        <time>2018-05-16T06:06:22.000Z</time>
      </trkpt>
      <trkpt lat="44.37195" lon="5.95686">
        <ele>688.40002441406</ele>
        <time>2018-05-16T06:06:40.000Z</time>
      </trkpt>
      <trkpt lat="44.37211" lon="5.95695">
        <ele>688.59997558594</ele>
        <time>2018-05-16T06:07:00.000Z</time>
      </trkpt>
      <trkpt lat="44.37224" lon="5.95697">
        <ele>688.40002441406</ele>
        <time>2018-05-16T06:07:13.000Z</time>
      </trkpt>
      <trkpt lat="44.37232" lon="5.95699">
        <ele>688.20001220703</ele>
        <time>2018-05-16T06:07:22.000Z</time>
      </trkpt>
      <trkpt lat="44.37246" lon="5.95705">
        <ele>692.20001220703</ele>
        <time>2018-05-16T06:07:38.000Z</time>
      </trkpt>
      <trkpt lat="44.37257" lon="5.95704">
        <ele>693.40002441406</ele>
        <time>2018-05-16T06:07:52.000Z</time>
      </trkpt>
      <trkpt lat="44.37273" lon="5.95707">
        <ele>700.59997558594</ele>
        <time>2018-05-16T06:08:12.000Z</time>
      </trkpt>
      <trkpt lat="44.37284" lon="5.957">
        <ele>702.40002441406</ele>
        <time>2018-05-16T06:08:24.000Z</time>
      </trkpt>
      <trkpt lat="44.37295" lon="5.957">
        <ele>697.79998779297</ele>
        <time>2018-05-16T06:08:38.000Z</time>
      </trkpt>
      <trkpt lat="44.37302" lon="5.95679">
        <ele>656.59997558594</ele>
        <time>2018-05-16T06:09:01.000Z</time>
      </trkpt>
      <trkpt lat="44.37307" lon="5.95671">
        <ele>645.20001220703</ele>
        <time>2018-05-16T06:09:10.000Z</time>
      </trkpt>
      <trkpt lat="44.37327" lon="5.95671">
        <ele>638.79998779297</ele>
        <time>2018-05-16T06:09:28.000Z</time>
      </trkpt>
      <trkpt lat="44.37332" lon="5.95668">
        <ele>637</ele>
        <time>2018-05-16T06:09:32.000Z</time>
      </trkpt>
      <trkpt lat="44.37361" lon="5.95648">
        <ele>627</ele>
        <time>2018-05-16T06:10:03.000Z</time>
      </trkpt>
      <trkpt lat="44.37377" lon="5.95615">
        <ele>620.20001220703</ele>
        <time>2018-05-16T06:10:30.000Z</time>
      </trkpt>
      <trkpt lat="44.37386" lon="5.95588">
        <ele>614.79998779297</ele>
        <time>2018-05-16T06:10:50.000Z</time>
      </trkpt>
      <trkpt lat="44.37401" lon="5.9556">
        <ele>610.79998779297</ele>
        <time>2018-05-16T06:11:11.000Z</time>
      </trkpt>
      <trkpt lat="44.37411" lon="5.95559">
        <ele>607.79998779297</ele>
        <time>2018-05-16T06:11:22.000Z</time>
      </trkpt>
      <trkpt lat="44.37418" lon="5.95577">
        <ele>603.59997558594</ele>
        <time>2018-05-16T06:11:38.000Z</time>
      </trkpt>
      <trkpt lat="44.37433" lon="5.95611">
        <ele>600</ele>
        <time>2018-05-16T06:12:02.000Z</time>
      </trkpt>
      <trkpt lat="44.3744" lon="5.95652">
        <ele>595</ele>
        <time>2018-05-16T06:12:33.000Z</time>
      </trkpt>
      <trkpt lat="44.37436" lon="5.9567">
        <ele>592.79998779297</ele>
        <time>2018-05-16T06:12:46.000Z</time>
      </trkpt>
      <trkpt lat="44.37436" lon="5.95675">
        <ele>592.20001220703</ele>
        <time>2018-05-16T06:12:49.000Z</time>
      </trkpt>
      <trkpt lat="44.37441" lon="5.95686">
        <ele>588.79998779297</ele>
        <time>2018-05-16T06:13:09.000Z</time>
      </trkpt>
      <trkpt lat="44.37449" lon="5.95702">
        <ele>586.20001220703</ele>
        <time>2018-05-16T06:13:27.000Z</time>
      </trkpt>
      <trkpt lat="44.37456" lon="5.95723">
        <ele>583.40002441406</ele>
        <time>2018-05-16T06:13:50.000Z</time>
      </trkpt>
      <trkpt lat="44.37471" lon="5.95724">
        <ele>581.79998779297</ele>
        <time>2018-05-16T06:14:12.000Z</time>
      </trkpt>
      <trkpt lat="44.37485" lon="5.9572">
        <ele>581.20001220703</ele>
        <time>2018-05-16T06:14:33.000Z</time>
      </trkpt>
      <trkpt lat="44.37502" lon="5.95711">
        <ele>586.40002441406</ele>
        <time>2018-05-16T06:14:59.000Z</time>
      </trkpt>
      <trkpt lat="44.37519" lon="5.95715">
        <ele>589.20001220703</ele>
        <time>2018-05-16T06:15:23.000Z</time>
      </trkpt>
      <trkpt lat="44.37533" lon="5.95719">
        <ele>593</ele>
        <time>2018-05-16T06:15:45.000Z</time>
      </trkpt>
      <trkpt lat="44.37552" lon="5.9572">
        <ele>597.40002441406</ele>
        <time>2018-05-16T06:16:11.000Z</time>
      </trkpt>
      <trkpt lat="44.37569" lon="5.95724">
        <ele>600.79998779297</ele>
        <time>2018-05-16T06:16:33.000Z</time>
      </trkpt>
      <trkpt lat="44.37574" lon="5.95727">
        <ele>604.79998779297</ele>
        <time>2018-05-16T06:16:58.000Z</time>
      </trkpt>
      <trkpt lat="44.37582" lon="5.95739">
        <ele>607.20001220703</ele>
        <time>2018-05-16T06:17:19.000Z</time>
      </trkpt>
      <trkpt lat="44.37597" lon="5.95754">
        <ele>612</ele>
        <time>2018-05-16T06:17:43.000Z</time>
      </trkpt>
      <trkpt lat="44.37612" lon="5.95768">
        <ele>616</ele>
        <time>2018-05-16T06:18:08.000Z</time>
      </trkpt>
      <trkpt lat="44.37622" lon="5.95787">
        <ele>620.20001220703</ele>
        <time>2018-05-16T06:18:37.000Z</time>
      </trkpt>
      <trkpt lat="44.37631" lon="5.95789">
        <ele>622.79998779297</ele>
        <time>2018-05-16T06:18:58.000Z</time>
      </trkpt>
      <trkpt lat="44.37634" lon="5.95789">
        <ele>623.79998779297</ele>
        <time>2018-05-16T06:19:09.000Z</time>
      </trkpt>
      <trkpt lat="44.37661" lon="5.95797">
        <ele>633.79998779297</ele>
        <time>2018-05-16T06:19:35.000Z</time>
      </trkpt>
      <trkpt lat="44.37673" lon="5.95805">
        <ele>640.40002441406</ele>
        <time>2018-05-16T06:20:00.000Z</time>
      </trkpt>
      <trkpt lat="44.37676" lon="5.95807">
        <ele>641.79998779297</ele>
        <time>2018-05-16T06:20:22.000Z</time>
      </trkpt>
      <trkpt lat="44.37685" lon="5.95818">
        <ele>644.59997558594</ele>
        <time>2018-05-16T06:20:43.000Z</time>
      </trkpt>
      <trkpt lat="44.37697" lon="5.95831">
        <ele>647.59997558594</ele>
        <time>2018-05-16T06:21:06.000Z</time>
      </trkpt>
      <trkpt lat="44.37704" lon="5.95855">
        <ele>652.20001220703</ele>
        <time>2018-05-16T06:21:36.000Z</time>
      </trkpt>
      <trkpt lat="44.37712" lon="5.95873">
        <ele>655.79998779297</ele>
        <time>2018-05-16T06:21:59.000Z</time>
      </trkpt>
      <trkpt lat="44.37713" lon="5.95879">
        <ele>658.20001220703</ele>
        <time>2018-05-16T06:22:36.000Z</time>
      </trkpt>
      <trkpt lat="44.37709" lon="5.95871">
        <ele>659.40002441406</ele>
        <time>2018-05-16T06:23:03.000Z</time>
      </trkpt>
      <trkpt lat="44.3771" lon="5.95876">
        <ele>660.40002441406</ele>
        <time>2018-05-16T06:23:39.000Z</time>
      </trkpt>
      <trkpt lat="44.3771" lon="5.9588">
        <ele>663.40002441406</ele>
        <time>2018-05-16T06:24:15.000Z</time>
      </trkpt>
      <trkpt lat="44.37712" lon="5.95878">
        <ele>664.59997558594</ele>
        <time>2018-05-16T06:24:42.000Z</time>
      </trkpt>
      <trkpt lat="44.37716" lon="5.95879">
        <ele>666.40002441406</ele>
        <time>2018-05-16T06:25:25.000Z</time>
      </trkpt>
      <trkpt lat="44.37713" lon="5.95886">
        <ele>666.20001220703</ele>
        <time>2018-05-16T06:25:51.000Z</time>
      </trkpt>
      <trkpt lat="44.37717" lon="5.95887">
        <ele>666.59997558594</ele>
        <time>2018-05-16T06:26:21.000Z</time>
      </trkpt>
      <trkpt lat="44.37716" lon="5.95902">
        <ele>667.20001220703</ele>
        <time>2018-05-16T06:26:40.000Z</time>
      </trkpt>
      <trkpt lat="44.37711" lon="5.95919">
        <ele>666.79998779297</ele>
        <time>2018-05-16T06:27:05.000Z</time>
      </trkpt>
      <trkpt lat="44.37724" lon="5.95942">
        <ele>667.20001220703</ele>
        <time>2018-05-16T06:27:29.000Z</time>
      </trkpt>
      <trkpt lat="44.37734" lon="5.95963">
        <ele>669.20001220703</ele>
        <time>2018-05-16T06:27:52.000Z</time>
      </trkpt>
      <trkpt lat="44.37741" lon="5.95986">
        <ele>673</ele>
        <time>2018-05-16T06:28:21.000Z</time>
      </trkpt>
      <trkpt lat="44.37746" lon="5.96">
        <ele>675.40002441406</ele>
        <time>2018-05-16T06:28:48.000Z</time>
      </trkpt>
      <trkpt lat="44.37763" lon="5.96023">
        <ele>677.79998779297</ele>
        <time>2018-05-16T06:29:15.000Z</time>
      </trkpt>
      <trkpt lat="44.37781" lon="5.96053">
        <ele>679.79998779297</ele>
        <time>2018-05-16T06:29:47.000Z</time>
      </trkpt>
      <trkpt lat="44.37794" lon="5.96092">
        <ele>682.40002441406</ele>
        <time>2018-05-16T06:30:22.000Z</time>
      </trkpt>
      <trkpt lat="44.378" lon="5.96139">
        <ele>685</ele>
        <time>2018-05-16T06:30:54.000Z</time>
      </trkpt>
      <trkpt lat="44.37808" lon="5.9617">
        <ele>687.20001220703</ele>
        <time>2018-05-16T06:31:23.000Z</time>
      </trkpt>
      <trkpt lat="44.37819" lon="5.96198">
        <ele>689.59997558594</ele>
        <time>2018-05-16T06:31:51.000Z</time>
      </trkpt>
      <trkpt lat="44.37834" lon="5.9622">
        <ele>692</ele>
        <time>2018-05-16T06:32:16.000Z</time>
      </trkpt>
      <trkpt lat="44.37846" lon="5.96245">
        <ele>696.40002441406</ele>
        <time>2018-05-16T06:32:44.000Z</time>
      </trkpt>
      <trkpt lat="44.37861" lon="5.96263">
        <ele>700.59997558594</ele>
        <time>2018-05-16T06:33:11.000Z</time>
      </trkpt>
      <trkpt lat="44.37875" lon="5.96287">
        <ele>704.59997558594</ele>
        <time>2018-05-16T06:33:39.000Z</time>
      </trkpt>
      <trkpt lat="44.37893" lon="5.96307">
        <ele>708.79998779297</ele>
        <time>2018-05-16T06:34:10.000Z</time>
      </trkpt>
      <trkpt lat="44.37904" lon="5.96324">
        <ele>712.40002441406</ele>
        <time>2018-05-16T06:34:31.000Z</time>
      </trkpt>
      <trkpt lat="44.37922" lon="5.96326">
        <ele>715</ele>
        <time>2018-05-16T06:34:56.000Z</time>
      </trkpt>
      <trkpt lat="44.37933" lon="5.96326">
        <ele>714.79998779297</ele>
        <time>2018-05-16T06:35:28.000Z</time>
      </trkpt>
      <trkpt lat="44.37941" lon="5.96327">
        <ele>713</ele>
        <time>2018-05-16T06:36:03.000Z</time>
      </trkpt>
      <trkpt lat="44.3796" lon="5.96339">
        <ele>711.59997558594</ele>
        <time>2018-05-16T06:36:32.000Z</time>
      </trkpt>
      <trkpt lat="44.37959" lon="5.9634">
        <ele>709.40002441406</ele>
        <time>2018-05-16T06:37:01.000Z</time>
      </trkpt>
      <trkpt lat="44.37969" lon="5.96344">
        <ele>708</ele>
        <time>2018-05-16T06:37:35.000Z</time>
      </trkpt>
      <trkpt lat="44.37986" lon="5.96345">
        <ele>708.20001220703</ele>
        <time>2018-05-16T06:37:53.000Z</time>
      </trkpt>
      <trkpt lat="44.37993" lon="5.96348">
        <ele>709.59997558594</ele>
        <time>2018-05-16T06:38:16.000Z</time>
      </trkpt>
      <trkpt lat="44.37999" lon="5.96347">
        <ele>709.59997558594</ele>
        <time>2018-05-16T06:38:22.000Z</time>
      </trkpt>
      <trkpt lat="44.38024" lon="5.96349">
        <ele>709</ele>
        <time>2018-05-16T06:38:46.000Z</time>
      </trkpt>
      <trkpt lat="44.3804" lon="5.96343">
        <ele>709.79998779297</ele>
        <time>2018-05-16T06:39:03.000Z</time>
      </trkpt>
      <trkpt lat="44.38056" lon="5.96341">
        <ele>708.40002441406</ele>
        <time>2018-05-16T06:39:22.000Z</time>
      </trkpt>
      <trkpt lat="44.38075" lon="5.96345">
        <ele>707.40002441406</ele>
        <time>2018-05-16T06:39:41.000Z</time>
      </trkpt>
      <trkpt lat="44.38105" lon="5.96358">
        <ele>707.59997558594</ele>
        <time>2018-05-16T06:40:12.000Z</time>
      </trkpt>
      <trkpt lat="44.38123" lon="5.96378">
        <ele>706.79998779297</ele>
        <time>2018-05-16T06:40:38.000Z</time>
      </trkpt>
      <trkpt lat="44.38139" lon="5.96411">
        <ele>706.79998779297</ele>
        <time>2018-05-16T06:41:07.000Z</time>
      </trkpt>
      <trkpt lat="44.38139" lon="5.96413">
        <ele>706.79998779297</ele>
        <time>2018-05-16T06:41:09.000Z</time>
      </trkpt>
      <trkpt lat="44.38143" lon="5.96419">
        <ele>708.20001220703</ele>
        <time>2018-05-16T06:41:42.000Z</time>
      </trkpt>
      <trkpt lat="44.3815" lon="5.96417">
        <ele>706.40002441406</ele>
        <time>2018-05-16T06:42:16.000Z</time>
      </trkpt>
      <trkpt lat="44.38153" lon="5.96425">
        <ele>705.79998779297</ele>
        <time>2018-05-16T06:42:43.000Z</time>
      </trkpt>
      <trkpt lat="44.38151" lon="5.96424">
        <ele>705.40002441406</ele>
        <time>2018-05-16T06:43:34.000Z</time>
      </trkpt>
      <trkpt lat="44.38154" lon="5.96437">
        <ele>706.20001220703</ele>
        <time>2018-05-16T06:44:25.000Z</time>
      </trkpt>
      <trkpt lat="44.38151" lon="5.96443">
        <ele>706.40002441406</ele>
        <time>2018-05-16T06:45:08.000Z</time>
      </trkpt>
      <trkpt lat="44.38159" lon="5.96456">
        <ele>705.59997558594</ele>
        <time>2018-05-16T06:45:34.000Z</time>
      </trkpt>
      <trkpt lat="44.38176" lon="5.96466">
        <ele>704.20001220703</ele>
        <time>2018-05-16T06:45:56.000Z</time>
      </trkpt>
      <trkpt lat="44.38183" lon="5.96471">
        <ele>705.20001220703</ele>
        <time>2018-05-16T06:46:29.000Z</time>
      </trkpt>
      <trkpt lat="44.38192" lon="5.96479">
        <ele>705.20001220703</ele>
        <time>2018-05-16T06:46:45.000Z</time>
      </trkpt>
      <trkpt lat="44.38196" lon="5.96486">
        <ele>705</ele>
        <time>2018-05-16T06:46:55.000Z</time>
      </trkpt>
      <trkpt lat="44.38205" lon="5.96499">
        <ele>705.40002441406</ele>
        <time>2018-05-16T06:47:26.000Z</time>
      </trkpt>
      <trkpt lat="44.38218" lon="5.96531">
        <ele>703.59997558594</ele>
        <time>2018-05-16T06:47:52.000Z</time>
      </trkpt>
      <trkpt lat="44.38218" lon="5.96568">
        <ele>702.40002441406</ele>
        <time>2018-05-16T06:48:17.000Z</time>
      </trkpt>
      <trkpt lat="44.38224" lon="5.96581">
        <ele>702.20001220703</ele>
        <time>2018-05-16T06:48:50.000Z</time>
      </trkpt>
      <trkpt lat="44.38224" lon="5.96593">
        <ele>701.20001220703</ele>
        <time>2018-05-16T06:48:59.000Z</time>
      </trkpt>
      <trkpt lat="44.38221" lon="5.96609">
        <ele>700.40002441406</ele>
        <time>2018-05-16T06:49:15.000Z</time>
      </trkpt>
      <trkpt lat="44.38219" lon="5.96631">
        <ele>697.20001220703</ele>
        <time>2018-05-16T06:49:39.000Z</time>
      </trkpt>
      <trkpt lat="44.38225" lon="5.96642">
        <ele>695.59997558594</ele>
        <time>2018-05-16T06:49:46.000Z</time>
      </trkpt>
      <trkpt lat="44.38242" lon="5.96645">
        <ele>695.20001220703</ele>
        <time>2018-05-16T06:49:58.000Z</time>
      </trkpt>
      <trkpt lat="44.38256" lon="5.96628">
        <ele>695.40002441406</ele>
        <time>2018-05-16T06:50:16.000Z</time>
      </trkpt>
      <trkpt lat="44.38259" lon="5.96624">
        <ele>695.40002441406</ele>
        <time>2018-05-16T06:50:20.000Z</time>
      </trkpt>
      <trkpt lat="44.38275" lon="5.96608">
        <ele>696</ele>
        <time>2018-05-16T06:50:40.000Z</time>
      </trkpt>
      <trkpt lat="44.38284" lon="5.96601">
        <ele>697.20001220703</ele>
        <time>2018-05-16T06:50:53.000Z</time>
      </trkpt>
      <trkpt lat="44.38308" lon="5.96604">
        <ele>697.79998779297</ele>
        <time>2018-05-16T06:51:16.000Z</time>
      </trkpt>
      <trkpt lat="44.38332" lon="5.96593">
        <ele>698</ele>
        <time>2018-05-16T06:51:42.000Z</time>
      </trkpt>
      <trkpt lat="44.38351" lon="5.96591">
        <ele>703.59997558594</ele>
        <time>2018-05-16T06:52:05.000Z</time>
      </trkpt>
      <trkpt lat="44.3836" lon="5.96613">
        <ele>706.20001220703</ele>
        <time>2018-05-16T06:52:28.000Z</time>
      </trkpt>
      <trkpt lat="44.38364" lon="5.96651">
        <ele>709.40002441406</ele>
        <time>2018-05-16T06:53:00.000Z</time>
      </trkpt>
      <trkpt lat="44.38362" lon="5.96685">
        <ele>713.40002441406</ele>
        <time>2018-05-16T06:53:35.000Z</time>
      </trkpt>
      <trkpt lat="44.3835" lon="5.967">
        <ele>716.40002441406</ele>
        <time>2018-05-16T06:53:59.000Z</time>
      </trkpt>
      <trkpt lat="44.38329" lon="5.96708">
        <ele>721.20001220703</ele>
        <time>2018-05-16T06:54:34.000Z</time>
      </trkpt>
      <trkpt lat="44.38317" lon="5.96726">
        <ele>725.40002441406</ele>
        <time>2018-05-16T06:55:06.000Z</time>
      </trkpt>
      <trkpt lat="44.38315" lon="5.9674">
        <ele>728.79998779297</ele>
        <time>2018-05-16T06:55:28.000Z</time>
      </trkpt>
      <trkpt lat="44.38319" lon="5.96756">
        <ele>731.40002441406</ele>
        <time>2018-05-16T06:55:48.000Z</time>
      </trkpt>
      <trkpt lat="44.38326" lon="5.96779">
        <ele>735.40002441406</ele>
        <time>2018-05-16T06:56:15.000Z</time>
      </trkpt>
      <trkpt lat="44.38327" lon="5.96792">
        <ele>737.20001220703</ele>
        <time>2018-05-16T06:56:43.000Z</time>
      </trkpt>
      <trkpt lat="44.38329" lon="5.96793">
        <ele>740.59997558594</ele>
        <time>2018-05-16T06:57:18.000Z</time>
      </trkpt>
      <trkpt lat="44.38328" lon="5.96798">
        <ele>742.20001220703</ele>
        <time>2018-05-16T06:58:11.000Z</time>
      </trkpt>
      <trkpt lat="44.38328" lon="5.96797">
        <ele>743.40002441406</ele>
        <time>2018-05-16T06:58:53.000Z</time>
      </trkpt>
      <trkpt lat="44.38327" lon="5.96798">
        <ele>744</ele>
        <time>2018-05-16T06:59:34.000Z</time>
      </trkpt>
      <trkpt lat="44.3833" lon="5.96798">
        <ele>743</ele>
        <time>2018-05-16T07:00:14.000Z</time>
      </trkpt>
      <trkpt lat="44.38333" lon="5.96799">
        <ele>745.79998779297</ele>
        <time>2018-05-16T07:01:28.000Z</time>
      </trkpt>
      <trkpt lat="44.38331" lon="5.96798">
        <ele>746.20001220703</ele>
        <time>2018-05-16T07:02:38.000Z</time>
      </trkpt>
      <trkpt lat="44.38332" lon="5.96798">
        <ele>746.20001220703</ele>
        <time>2018-05-16T07:03:27.000Z</time>
      </trkpt>
      <trkpt lat="44.38333" lon="5.96809">
        <ele>745.79998779297</ele>
        <time>2018-05-16T07:03:45.000Z</time>
      </trkpt>
      <trkpt lat="44.38339" lon="5.96827">
        <ele>746.40002441406</ele>
        <time>2018-05-16T07:04:10.000Z</time>
      </trkpt>
      <trkpt lat="44.38347" lon="5.96841">
        <ele>747.20001220703</ele>
        <time>2018-05-16T07:04:33.000Z</time>
      </trkpt>
      <trkpt lat="44.38353" lon="5.96868">
        <ele>748.20001220703</ele>
        <time>2018-05-16T07:05:01.000Z</time>
      </trkpt>
      <trkpt lat="44.38357" lon="5.96888">
        <ele>748.59997558594</ele>
        <time>2018-05-16T07:05:26.000Z</time>
      </trkpt>
      <trkpt lat="44.3837" lon="5.96904">
        <ele>749</ele>
        <time>2018-05-16T07:05:53.000Z</time>
      </trkpt>
      <trkpt lat="44.38385" lon="5.96921">
        <ele>751.79998779297</ele>
        <time>2018-05-16T07:06:19.000Z</time>
      </trkpt>
      <trkpt lat="44.38399" lon="5.96936">
        <ele>755.40002441406</ele>
        <time>2018-05-16T07:06:44.000Z</time>
      </trkpt>
      <trkpt lat="44.38405" lon="5.96954">
        <ele>757.40002441406</ele>
        <time>2018-05-16T07:07:04.000Z</time>
      </trkpt>
      <trkpt lat="44.38424" lon="5.96979">
        <ele>758.59997558594</ele>
        <time>2018-05-16T07:07:32.000Z</time>
      </trkpt>
      <trkpt lat="44.38447" lon="5.96998">
        <ele>758.79998779297</ele>
        <time>2018-05-16T07:07:59.000Z</time>
      </trkpt>
      <trkpt lat="44.38446" lon="5.97019">
        <ele>759.59997558594</ele>
        <time>2018-05-16T07:08:22.000Z</time>
      </trkpt>
      <trkpt lat="44.38437" lon="5.97039">
        <ele>758.79998779297</ele>
        <time>2018-05-16T07:08:45.000Z</time>
      </trkpt>
      <trkpt lat="44.3842" lon="5.97065">
        <ele>757.79998779297</ele>
        <time>2018-05-16T07:09:12.000Z</time>
      </trkpt>
      <trkpt lat="44.38407" lon="5.97088">
        <ele>756.59997558594</ele>
        <time>2018-05-16T07:09:37.000Z</time>
      </trkpt>
      <trkpt lat="44.38399" lon="5.97115">
        <ele>754.79998779297</ele>
        <time>2018-05-16T07:10:01.000Z</time>
      </trkpt>
      <trkpt lat="44.38402" lon="5.97136">
        <ele>753.79998779297</ele>
        <time>2018-05-16T07:10:24.000Z</time>
      </trkpt>
      <trkpt lat="44.38396" lon="5.97156">
        <ele>751.59997558594</ele>
        <time>2018-05-16T07:10:49.000Z</time>
      </trkpt>
      <trkpt lat="44.38395" lon="5.97182">
        <ele>750.20001220703</ele>
        <time>2018-05-16T07:11:13.000Z</time>
      </trkpt>
      <trkpt lat="44.38392" lon="5.97217">
        <ele>748</ele>
        <time>2018-05-16T07:11:39.000Z</time>
      </trkpt>
      <trkpt lat="44.38387" lon="5.97228">
        <ele>747</ele>
        <time>2018-05-16T07:11:50.000Z</time>
      </trkpt>
      <trkpt lat="44.38381" lon="5.97232">
        <ele>746.79998779297</ele>
        <time>2018-05-16T07:12:00.000Z</time>
      </trkpt>
      <trkpt lat="44.38382" lon="5.97234">
        <ele>746.79998779297</ele>
        <time>2018-05-16T07:12:04.000Z</time>
      </trkpt>
      <trkpt lat="44.38384" lon="5.97249">
        <ele>747</ele>
        <time>2018-05-16T07:12:25.000Z</time>
      </trkpt>
      <trkpt lat="44.38398" lon="5.97256">
        <ele>747</ele>
        <time>2018-05-16T07:12:49.000Z</time>
      </trkpt>
      <trkpt lat="44.38413" lon="5.97257">
        <ele>747.20001220703</ele>
        <time>2018-05-16T07:13:08.000Z</time>
      </trkpt>
      <trkpt lat="44.38434" lon="5.97242">
        <ele>746.79998779297</ele>
        <time>2018-05-16T07:13:35.000Z</time>
      </trkpt>
      <trkpt lat="44.38442" lon="5.97249">
        <ele>746</ele>
        <time>2018-05-16T07:14:00.000Z</time>
      </trkpt>
      <trkpt lat="44.3844" lon="5.97258">
        <ele>745.20001220703</ele>
        <time>2018-05-16T07:14:24.000Z</time>
      </trkpt>
      <trkpt lat="44.38442" lon="5.9727">
        <ele>745.59997558594</ele>
        <time>2018-05-16T07:14:55.000Z</time>
      </trkpt>
      <trkpt lat="44.38446" lon="5.97282">
        <ele>745.59997558594</ele>
        <time>2018-05-16T07:15:17.000Z</time>
      </trkpt>
      <trkpt lat="44.38447" lon="5.97282">
        <ele>745.59997558594</ele>
        <time>2018-05-16T07:15:18.000Z</time>
      </trkpt>
      <trkpt lat="44.38456" lon="5.973">
        <ele>745</ele>
        <time>2018-05-16T07:15:40.000Z</time>
      </trkpt>
      <trkpt lat="44.38453" lon="5.97322">
        <ele>746</ele>
        <time>2018-05-16T07:16:07.000Z</time>
      </trkpt>
      <trkpt lat="44.38452" lon="5.97323">
        <ele>746.20001220703</ele>
        <time>2018-05-16T07:16:14.000Z</time>
      </trkpt>
      <trkpt lat="44.38441" lon="5.97328">
        <ele>747.20001220703</ele>
        <time>2018-05-16T07:16:35.000Z</time>
      </trkpt>
      <trkpt lat="44.38421" lon="5.97347">
        <ele>746.79998779297</ele>
        <time>2018-05-16T07:17:05.000Z</time>
      </trkpt>
      <trkpt lat="44.38415" lon="5.97355">
        <ele>747.20001220703</ele>
        <time>2018-05-16T07:17:19.000Z</time>
      </trkpt>
      <trkpt lat="44.38417" lon="5.97382">
        <ele>749.40002441406</ele>
        <time>2018-05-16T07:17:48.000Z</time>
      </trkpt>
      <trkpt lat="44.38424" lon="5.97406">
        <ele>751.20001220703</ele>
        <time>2018-05-16T07:18:14.000Z</time>
      </trkpt>
      <trkpt lat="44.38433" lon="5.97422">
        <ele>753.20001220703</ele>
        <time>2018-05-16T07:18:40.000Z</time>
      </trkpt>
      <trkpt lat="44.38446" lon="5.97447">
        <ele>755.40002441406</ele>
        <time>2018-05-16T07:19:09.000Z</time>
      </trkpt>
      <trkpt lat="44.38451" lon="5.97465">
        <ele>757.59997558594</ele>
        <time>2018-05-16T07:19:33.000Z</time>
      </trkpt>
      <trkpt lat="44.38463" lon="5.97466">
        <ele>759.40002441406</ele>
        <time>2018-05-16T07:19:50.000Z</time>
      </trkpt>
      <trkpt lat="44.38486" lon="5.97464">
        <ele>762.59997558594</ele>
        <time>2018-05-16T07:20:14.000Z</time>
      </trkpt>
      <trkpt lat="44.38488" lon="5.97463">
        <ele>763.20001220703</ele>
        <time>2018-05-16T07:20:16.000Z</time>
      </trkpt>
      <trkpt lat="44.38493" lon="5.97463">
        <ele>763.79998779297</ele>
        <time>2018-05-16T07:20:21.000Z</time>
      </trkpt>
      <trkpt lat="44.38503" lon="5.97491">
        <ele>766.40002441406</ele>
        <time>2018-05-16T07:20:46.000Z</time>
      </trkpt>
      <trkpt lat="44.38509" lon="5.97517">
        <ele>771</ele>
        <time>2018-05-16T07:21:14.000Z</time>
      </trkpt>
      <trkpt lat="44.38524" lon="5.97545">
        <ele>774.79998779297</ele>
        <time>2018-05-16T07:21:45.000Z</time>
      </trkpt>
      <trkpt lat="44.38528" lon="5.97554">
        <ele>776.59997558594</ele>
        <time>2018-05-16T07:21:57.000Z</time>
      </trkpt>
      <trkpt lat="44.38528" lon="5.97565">
        <ele>778.40002441406</ele>
        <time>2018-05-16T07:22:16.000Z</time>
      </trkpt>
      <trkpt lat="44.38522" lon="5.97585">
        <ele>779.59997558594</ele>
        <time>2018-05-16T07:22:44.000Z</time>
      </trkpt>
      <trkpt lat="44.38516" lon="5.97599">
        <ele>779.79998779297</ele>
        <time>2018-05-16T07:23:05.000Z</time>
      </trkpt>
      <trkpt lat="44.38514" lon="5.97621">
        <ele>781.20001220703</ele>
        <time>2018-05-16T07:23:33.000Z</time>
      </trkpt>
      <trkpt lat="44.38514" lon="5.97625">
        <ele>783.20001220703</ele>
        <time>2018-05-16T07:24:10.000Z</time>
      </trkpt>
      <trkpt lat="44.38516" lon="5.97628">
        <ele>783.59997558594</ele>
        <time>2018-05-16T07:24:31.000Z</time>
      </trkpt>
      <trkpt lat="44.38508" lon="5.97623">
        <ele>785.59997558594</ele>
        <time>2018-05-16T07:25:17.000Z</time>
      </trkpt>
      <trkpt lat="44.38507" lon="5.97623">
        <ele>786.20001220703</ele>
        <time>2018-05-16T07:25:27.000Z</time>
      </trkpt>
      <trkpt lat="44.38503" lon="5.97618">
        <ele>786.79998779297</ele>
        <time>2018-05-16T07:25:48.000Z</time>
      </trkpt>
      <trkpt lat="44.38507" lon="5.97619">
        <ele>785.59997558594</ele>
        <time>2018-05-16T07:26:27.000Z</time>
      </trkpt>
      <trkpt lat="44.38509" lon="5.97619">
        <ele>785.59997558594</ele>
        <time>2018-05-16T07:26:29.000Z</time>
      </trkpt>
      <trkpt lat="44.38532" lon="5.97634">
        <ele>786</ele>
        <time>2018-05-16T07:26:56.000Z</time>
      </trkpt>
      <trkpt lat="44.38533" lon="5.9764">
        <ele>786</ele>
        <time>2018-05-16T07:27:01.000Z</time>
      </trkpt>
      <trkpt lat="44.38529" lon="5.9764">
        <ele>786</ele>
        <time>2018-05-16T07:27:47.000Z</time>
      </trkpt>
      <trkpt lat="44.38534" lon="5.9765">
        <ele>787.40002441406</ele>
        <time>2018-05-16T07:28:16.000Z</time>
      </trkpt>
      <trkpt lat="44.38553" lon="5.97655">
        <ele>788.40002441406</ele>
        <time>2018-05-16T07:28:43.000Z</time>
      </trkpt>
      <trkpt lat="44.38578" lon="5.97646">
        <ele>789.59997558594</ele>
        <time>2018-05-16T07:29:11.000Z</time>
      </trkpt>
      <trkpt lat="44.38589" lon="5.97641">
        <ele>792</ele>
        <time>2018-05-16T07:29:38.000Z</time>
      </trkpt>
      <trkpt lat="44.38594" lon="5.97639">
        <ele>795.40002441406</ele>
        <time>2018-05-16T07:30:26.000Z</time>
      </trkpt>
      <trkpt lat="44.38602" lon="5.97658">
        <ele>798.79998779297</ele>
        <time>2018-05-16T07:30:54.000Z</time>
      </trkpt>
      <trkpt lat="44.386" lon="5.97661">
        <ele>803.59997558594</ele>
        <time>2018-05-16T07:31:41.000Z</time>
      </trkpt>
      <trkpt lat="44.38597" lon="5.97675">
        <ele>805.20001220703</ele>
        <time>2018-05-16T07:32:05.000Z</time>
      </trkpt>
      <trkpt lat="44.38591" lon="5.97692">
        <ele>807.20001220703</ele>
        <time>2018-05-16T07:32:35.000Z</time>
      </trkpt>
      <trkpt lat="44.38586" lon="5.97707">
        <ele>810.79998779297</ele>
        <time>2018-05-16T07:33:07.000Z</time>
      </trkpt>
      <trkpt lat="44.38579" lon="5.97709">
        <ele>813.40002441406</ele>
        <time>2018-05-16T07:33:30.000Z</time>
      </trkpt>
      <trkpt lat="44.38573" lon="5.97715">
        <ele>816.40002441406</ele>
        <time>2018-05-16T07:33:55.000Z</time>
      </trkpt>
      <trkpt lat="44.38569" lon="5.97724">
        <ele>820.20001220703</ele>
        <time>2018-05-16T07:34:28.000Z</time>
      </trkpt>
      <trkpt lat="44.3856" lon="5.97727">
        <ele>823.40002441406</ele>
        <time>2018-05-16T07:34:58.000Z</time>
      </trkpt>
      <trkpt lat="44.38562" lon="5.97738">
        <ele>824.40002441406</ele>
        <time>2018-05-16T07:35:32.000Z</time>
      </trkpt>
      <trkpt lat="44.38563" lon="5.97745">
        <ele>828</ele>
        <time>2018-05-16T07:36:35.000Z</time>
      </trkpt>
      <trkpt lat="44.38563" lon="5.9775">
        <ele>828.59997558594</ele>
        <time>2018-05-16T07:36:43.000Z</time>
      </trkpt>
      <trkpt lat="44.38558" lon="5.97763">
        <ele>830.20001220703</ele>
        <time>2018-05-16T07:37:15.000Z</time>
      </trkpt>
      <trkpt lat="44.38556" lon="5.97785">
        <ele>832.20001220703</ele>
        <time>2018-05-16T07:37:56.000Z</time>
      </trkpt>
      <trkpt lat="44.3856" lon="5.97802">
        <ele>834</ele>
        <time>2018-05-16T07:38:26.000Z</time>
      </trkpt>
      <trkpt lat="44.38558" lon="5.97827">
        <ele>836</ele>
        <time>2018-05-16T07:39:01.000Z</time>
      </trkpt>
      <trkpt lat="44.38554" lon="5.97855">
        <ele>839.59997558594</ele>
        <time>2018-05-16T07:39:44.000Z</time>
      </trkpt>
      <trkpt lat="44.38555" lon="5.97857">
        <ele>839.59997558594</ele>
        <time>2018-05-16T07:39:48.000Z</time>
      </trkpt>
      <trkpt lat="44.38552" lon="5.97878">
        <ele>842.79998779297</ele>
        <time>2018-05-16T07:40:19.000Z</time>
      </trkpt>
      <trkpt lat="44.38549" lon="5.97893">
        <ele>845.40002441406</ele>
        <time>2018-05-16T07:40:45.000Z</time>
      </trkpt>
      <trkpt lat="44.3855" lon="5.97911">
        <ele>847.79998779297</ele>
        <time>2018-05-16T07:41:16.000Z</time>
      </trkpt>
      <trkpt lat="44.38545" lon="5.97916">
        <ele>849.20001220703</ele>
        <time>2018-05-16T07:41:24.000Z</time>
      </trkpt>
      <trkpt lat="44.38533" lon="5.97906">
        <ele>852</ele>
        <time>2018-05-16T07:41:56.000Z</time>
      </trkpt>
      <trkpt lat="44.38535" lon="5.97904">
        <ele>853</ele>
        <time>2018-05-16T07:41:58.000Z</time>
      </trkpt>
      <trkpt lat="44.38543" lon="5.97919">
        <ele>862.20001220703</ele>
        <time>2018-05-16T07:42:56.000Z</time>
      </trkpt>
      <trkpt lat="44.38538" lon="5.97935">
        <ele>864</ele>
        <time>2018-05-16T07:43:20.000Z</time>
      </trkpt>
      <trkpt lat="44.3854" lon="5.97949">
        <ele>865.59997558594</ele>
        <time>2018-05-16T07:43:44.000Z</time>
      </trkpt>
      <trkpt lat="44.38545" lon="5.97961">
        <ele>868.79998779297</ele>
        <time>2018-05-16T07:44:15.000Z</time>
      </trkpt>
      <trkpt lat="44.38546" lon="5.97965">
        <ele>869.40002441406</ele>
        <time>2018-05-16T07:44:21.000Z</time>
      </trkpt>
      <trkpt lat="44.38547" lon="5.97969">
        <ele>870.40002441406</ele>
        <time>2018-05-16T07:44:30.000Z</time>
      </trkpt>
      <trkpt lat="44.38543" lon="5.97962">
        <ele>870.79998779297</ele>
        <time>2018-05-16T07:45:01.000Z</time>
      </trkpt>
      <trkpt lat="44.38546" lon="5.9798">
        <ele>871.40002441406</ele>
        <time>2018-05-16T07:45:31.000Z</time>
      </trkpt>
      <trkpt lat="44.38551" lon="5.97992">
        <ele>871.59997558594</ele>
        <time>2018-05-16T07:45:41.000Z</time>
      </trkpt>
      <trkpt lat="44.38552" lon="5.97997">
        <ele>872.20001220703</ele>
        <time>2018-05-16T07:45:46.000Z</time>
      </trkpt>
      <trkpt lat="44.3856" lon="5.98021">
        <ele>873.79998779297</ele>
        <time>2018-05-16T07:46:11.000Z</time>
      </trkpt>
      <trkpt lat="44.38561" lon="5.9803">
        <ele>877.40002441406</ele>
        <time>2018-05-16T07:46:51.000Z</time>
      </trkpt>
      <trkpt lat="44.38571" lon="5.98031">
        <ele>878.59997558594</ele>
        <time>2018-05-16T07:47:35.000Z</time>
      </trkpt>
      <trkpt lat="44.38587" lon="5.98046">
        <ele>879.20001220703</ele>
        <time>2018-05-16T07:48:00.000Z</time>
      </trkpt>
      <trkpt lat="44.38594" lon="5.98066">
        <ele>878.20001220703</ele>
        <time>2018-05-16T07:48:19.000Z</time>
      </trkpt>
      <trkpt lat="44.38606" lon="5.98077">
        <ele>878.40002441406</ele>
        <time>2018-05-16T07:48:42.000Z</time>
      </trkpt>
      <trkpt lat="44.38622" lon="5.98088">
        <ele>876.20001220703</ele>
        <time>2018-05-16T07:49:05.000Z</time>
      </trkpt>
      <trkpt lat="44.38637" lon="5.98106">
        <ele>873</ele>
        <time>2018-05-16T07:49:33.000Z</time>
      </trkpt>
      <trkpt lat="44.38645" lon="5.98125">
        <ele>870.79998779297</ele>
        <time>2018-05-16T07:50:00.000Z</time>
      </trkpt>
      <trkpt lat="44.38655" lon="5.98143">
        <ele>868.20001220703</ele>
        <time>2018-05-16T07:50:26.000Z</time>
      </trkpt>
      <trkpt lat="44.38664" lon="5.98162">
        <ele>866</ele>
        <time>2018-05-16T07:50:47.000Z</time>
      </trkpt>
      <trkpt lat="44.38677" lon="5.98185">
        <ele>862.79998779297</ele>
        <time>2018-05-16T07:51:09.000Z</time>
      </trkpt>
      <trkpt lat="44.38688" lon="5.98211">
        <ele>858.79998779297</ele>
        <time>2018-05-16T07:51:33.000Z</time>
      </trkpt>
      <trkpt lat="44.38691" lon="5.98234">
        <ele>856.20001220703</ele>
        <time>2018-05-16T07:51:56.000Z</time>
      </trkpt>
      <trkpt lat="44.38706" lon="5.98249">
        <ele>854.20001220703</ele>
        <time>2018-05-16T07:52:21.000Z</time>
      </trkpt>
      <trkpt lat="44.3872" lon="5.98264">
        <ele>849.40002441406</ele>
        <time>2018-05-16T07:52:48.000Z</time>
      </trkpt>
      <trkpt lat="44.3872" lon="5.98293">
        <ele>843.79998779297</ele>
        <time>2018-05-16T07:53:20.000Z</time>
      </trkpt>
      <trkpt lat="44.38715" lon="5.9832">
        <ele>841.79998779297</ele>
        <time>2018-05-16T07:53:57.000Z</time>
      </trkpt>
      <trkpt lat="44.38713" lon="5.98344">
        <ele>842.20001220703</ele>
        <time>2018-05-16T07:54:29.000Z</time>
      </trkpt>
      <trkpt lat="44.38714" lon="5.98346">
        <ele>842</ele>
        <time>2018-05-16T07:54:33.000Z</time>
      </trkpt>
      <trkpt lat="44.38709" lon="5.98359">
        <ele>842.79998779297</ele>
        <time>2018-05-16T07:54:49.000Z</time>
      </trkpt>
      <trkpt lat="44.38707" lon="5.98383">
        <ele>844</ele>
        <time>2018-05-16T07:55:19.000Z</time>
      </trkpt>
      <trkpt lat="44.38706" lon="5.98407">
        <ele>845.20001220703</ele>
        <time>2018-05-16T07:55:48.000Z</time>
      </trkpt>
      <trkpt lat="44.38701" lon="5.98424">
        <ele>846.59997558594</ele>
        <time>2018-05-16T07:56:15.000Z</time>
      </trkpt>
      <trkpt lat="44.38701" lon="5.98442">
        <ele>849</ele>
        <time>2018-05-16T07:56:42.000Z</time>
      </trkpt>
      <trkpt lat="44.38703" lon="5.98446">
        <ele>849.20001220703</ele>
        <time>2018-05-16T07:56:46.000Z</time>
      </trkpt>
      <trkpt lat="44.38697" lon="5.98468">
        <ele>851</ele>
        <time>2018-05-16T07:57:15.000Z</time>
      </trkpt>
      <trkpt lat="44.38691" lon="5.98489">
        <ele>851.59997558594</ele>
        <time>2018-05-16T07:57:44.000Z</time>
      </trkpt>
      <trkpt lat="44.38686" lon="5.98506">
        <ele>852.59997558594</ele>
        <time>2018-05-16T07:58:08.000Z</time>
      </trkpt>
      <trkpt lat="44.38681" lon="5.98535">
        <ele>853.59997558594</ele>
        <time>2018-05-16T07:58:35.000Z</time>
      </trkpt>
      <trkpt lat="44.38675" lon="5.98564">
        <ele>856</ele>
        <time>2018-05-16T07:59:06.000Z</time>
      </trkpt>
      <trkpt lat="44.38666" lon="5.98588">
        <ele>857.59997558594</ele>
        <time>2018-05-16T07:59:37.000Z</time>
      </trkpt>
      <trkpt lat="44.38653" lon="5.98604">
        <ele>858.59997558594</ele>
        <time>2018-05-16T08:00:08.000Z</time>
      </trkpt>
      <trkpt lat="44.38644" lon="5.98614">
        <ele>860.20001220703</ele>
        <time>2018-05-16T08:00:31.000Z</time>
      </trkpt>
      <trkpt lat="44.38638" lon="5.98621">
        <ele>861</ele>
        <time>2018-05-16T08:00:44.000Z</time>
      </trkpt>
      <trkpt lat="44.38636" lon="5.98628">
        <ele>861.79998779297</ele>
        <time>2018-05-16T08:00:53.000Z</time>
      </trkpt>
      <trkpt lat="44.38636" lon="5.98636">
        <ele>862.59997558594</ele>
        <time>2018-05-16T08:01:01.000Z</time>
      </trkpt>
      <trkpt lat="44.38626" lon="5.98652">
        <ele>865.40002441406</ele>
        <time>2018-05-16T08:01:29.000Z</time>
      </trkpt>
      <trkpt lat="44.38616" lon="5.98673">
        <ele>867.59997558594</ele>
        <time>2018-05-16T08:02:02.000Z</time>
      </trkpt>
      <trkpt lat="44.38608" lon="5.98694">
        <ele>872.40002441406</ele>
        <time>2018-05-16T08:02:30.000Z</time>
      </trkpt>
      <trkpt lat="44.38597" lon="5.98708">
        <ele>875.40002441406</ele>
        <time>2018-05-16T08:02:55.000Z</time>
      </trkpt>
      <trkpt lat="44.38588" lon="5.98726">
        <ele>878.59997558594</ele>
        <time>2018-05-16T08:03:22.000Z</time>
      </trkpt>
      <trkpt lat="44.38575" lon="5.9874">
        <ele>880.40002441406</ele>
        <time>2018-05-16T08:03:50.000Z</time>
      </trkpt>
      <trkpt lat="44.38561" lon="5.98751">
        <ele>883.20001220703</ele>
        <time>2018-05-16T08:04:18.000Z</time>
      </trkpt>
      <trkpt lat="44.3856" lon="5.98751">
        <ele>883.40002441406</ele>
        <time>2018-05-16T08:04:20.000Z</time>
      </trkpt>
      <trkpt lat="44.38545" lon="5.98772">
        <ele>885.59997558594</ele>
        <time>2018-05-16T08:04:52.000Z</time>
      </trkpt>
      <trkpt lat="44.38536" lon="5.98778">
        <ele>887</ele>
        <time>2018-05-16T08:05:16.000Z</time>
      </trkpt>
      <trkpt lat="44.38523" lon="5.98782">
        <ele>891.40002441406</ele>
        <time>2018-05-16T08:05:59.000Z</time>
      </trkpt>
      <trkpt lat="44.38527" lon="5.98786">
        <ele>904.79998779297</ele>
        <time>2018-05-16T08:06:51.000Z</time>
      </trkpt>
      <trkpt lat="44.38516" lon="5.98793">
        <ele>906.59997558594</ele>
        <time>2018-05-16T08:07:21.000Z</time>
      </trkpt>
      <trkpt lat="44.38513" lon="5.98793">
        <ele>907</ele>
        <time>2018-05-16T08:07:26.000Z</time>
      </trkpt>
      <trkpt lat="44.38492" lon="5.98792">
        <ele>909.20001220703</ele>
        <time>2018-05-16T08:07:54.000Z</time>
      </trkpt>
      <trkpt lat="44.38476" lon="5.98786">
        <ele>910.59997558594</ele>
        <time>2018-05-16T08:08:18.000Z</time>
      </trkpt>
      <trkpt lat="44.38465" lon="5.98781">
        <ele>911.79998779297</ele>
        <time>2018-05-16T08:08:44.000Z</time>
      </trkpt>
      <trkpt lat="44.38444" lon="5.98773">
        <ele>918.20001220703</ele>
        <time>2018-05-16T08:09:27.000Z</time>
      </trkpt>
      <trkpt lat="44.38441" lon="5.98779">
        <ele>923.40002441406</ele>
        <time>2018-05-16T08:10:10.000Z</time>
      </trkpt>
      <trkpt lat="44.38425" lon="5.98785">
        <ele>926.40002441406</ele>
        <time>2018-05-16T08:10:39.000Z</time>
      </trkpt>
      <trkpt lat="44.38407" lon="5.98788">
        <ele>930.59997558594</ele>
        <time>2018-05-16T08:11:10.000Z</time>
      </trkpt>
      <trkpt lat="44.38397" lon="5.98778">
        <ele>933</ele>
        <time>2018-05-16T08:11:31.000Z</time>
      </trkpt>
      <trkpt lat="44.3839" lon="5.98775">
        <ele>933.59997558594</ele>
        <time>2018-05-16T08:11:42.000Z</time>
      </trkpt>
      <trkpt lat="44.38381" lon="5.98767">
        <ele>934.59997558594</ele>
        <time>2018-05-16T08:11:56.000Z</time>
      </trkpt>
      <trkpt lat="44.38362" lon="5.98763">
        <ele>937</ele>
        <time>2018-05-16T08:12:24.000Z</time>
      </trkpt>
      <trkpt lat="44.38335" lon="5.98752">
        <ele>940.59997558594</ele>
        <time>2018-05-16T08:12:55.000Z</time>
      </trkpt>
      <trkpt lat="44.38332" lon="5.98753">
        <ele>941.40002441406</ele>
        <time>2018-05-16T08:12:59.000Z</time>
      </trkpt>
      <trkpt lat="44.38311" lon="5.98763">
        <ele>945</ele>
        <time>2018-05-16T08:13:23.000Z</time>
      </trkpt>
      <trkpt lat="44.38294" lon="5.98772">
        <ele>949.59997558594</ele>
        <time>2018-05-16T08:13:43.000Z</time>
      </trkpt>
      <trkpt lat="44.38288" lon="5.98769">
        <ele>951.59997558594</ele>
        <time>2018-05-16T08:13:52.000Z</time>
      </trkpt>
      <trkpt lat="44.38273" lon="5.98758">
        <ele>956</ele>
        <time>2018-05-16T08:14:19.000Z</time>
      </trkpt>
      <trkpt lat="44.3827" lon="5.98758">
        <ele>956.79998779297</ele>
        <time>2018-05-16T08:14:24.000Z</time>
      </trkpt>
      <trkpt lat="44.38262" lon="5.98759">
        <ele>958</ele>
        <time>2018-05-16T08:14:36.000Z</time>
      </trkpt>
      <trkpt lat="44.38236" lon="5.98774">
        <ele>963.59997558594</ele>
        <time>2018-05-16T08:15:12.000Z</time>
      </trkpt>
      <trkpt lat="44.38217" lon="5.98805">
        <ele>968</ele>
        <time>2018-05-16T08:15:44.000Z</time>
      </trkpt>
      <trkpt lat="44.38207" lon="5.98832">
        <ele>970.59997558594</ele>
        <time>2018-05-16T08:16:11.000Z</time>
      </trkpt>
      <trkpt lat="44.38196" lon="5.98848">
        <ele>975.40002441406</ele>
        <time>2018-05-16T08:16:39.000Z</time>
      </trkpt>
      <trkpt lat="44.38172" lon="5.98856">
        <ele>978.79998779297</ele>
        <time>2018-05-16T08:17:15.000Z</time>
      </trkpt>
      <trkpt lat="44.38152" lon="5.98867">
        <ele>981.20001220703</ele>
        <time>2018-05-16T08:17:43.000Z</time>
      </trkpt>
      <trkpt lat="44.38137" lon="5.98881">
        <ele>984.79998779297</ele>
        <time>2018-05-16T08:18:13.000Z</time>
      </trkpt>
      <trkpt lat="44.38116" lon="5.98885">
        <ele>989.20001220703</ele>
        <time>2018-05-16T08:18:45.000Z</time>
      </trkpt>
      <trkpt lat="44.38098" lon="5.98894">
        <ele>996.40002441406</ele>
        <time>2018-05-16T08:19:14.000Z</time>
      </trkpt>
      <trkpt lat="44.38092" lon="5.98893">
        <ele>1002.799987793</ele>
        <time>2018-05-16T08:19:50.000Z</time>
      </trkpt>
      <trkpt lat="44.38087" lon="5.98899">
        <ele>1007.5999755859</ele>
        <time>2018-05-16T08:20:13.000Z</time>
      </trkpt>
      <trkpt lat="44.38083" lon="5.98912">
        <ele>1012.5999755859</ele>
        <time>2018-05-16T08:21:06.000Z</time>
      </trkpt>
      <trkpt lat="44.38075" lon="5.98901">
        <ele>1015.5999755859</ele>
        <time>2018-05-16T08:21:30.000Z</time>
      </trkpt>
      <trkpt lat="44.38069" lon="5.98892">
        <ele>1021.200012207</ele>
        <time>2018-05-16T08:22:09.000Z</time>
      </trkpt>
      <trkpt lat="44.38055" lon="5.98881">
        <ele>1020.5999755859</ele>
        <time>2018-05-16T08:22:33.000Z</time>
      </trkpt>
      <trkpt lat="44.38045" lon="5.98871">
        <ele>1020.5999755859</ele>
        <time>2018-05-16T08:22:52.000Z</time>
      </trkpt>
      <trkpt lat="44.38031" lon="5.98851">
        <ele>1020.200012207</ele>
        <time>2018-05-16T08:23:21.000Z</time>
      </trkpt>
      <trkpt lat="44.38032" lon="5.98857">
        <ele>1019.799987793</ele>
        <time>2018-05-16T08:23:51.000Z</time>
      </trkpt>
      <trkpt lat="44.38018" lon="5.9886">
        <ele>1018.200012207</ele>
        <time>2018-05-16T08:24:12.000Z</time>
      </trkpt>
      <trkpt lat="44.38029" lon="5.98859">
        <ele>1018.200012207</ele>
        <time>2018-05-16T08:24:32.000Z</time>
      </trkpt>
      <trkpt lat="44.38032" lon="5.98837">
        <ele>1018.5999755859</ele>
        <time>2018-05-16T08:24:54.000Z</time>
      </trkpt>
      <trkpt lat="44.38018" lon="5.98823">
        <ele>1018.200012207</ele>
        <time>2018-05-16T08:25:16.000Z</time>
      </trkpt>
      <trkpt lat="44.38019" lon="5.98822">
        <ele>1019.4000244141</ele>
        <time>2018-05-16T08:25:46.000Z</time>
      </trkpt>
      <trkpt lat="44.38024" lon="5.98829">
        <ele>1019</ele>
        <time>2018-05-16T08:26:08.000Z</time>
      </trkpt>
      <trkpt lat="44.38029" lon="5.98837">
        <ele>1018.799987793</ele>
        <time>2018-05-16T08:26:35.000Z</time>
      </trkpt>
      <trkpt lat="44.38017" lon="5.98829">
        <ele>1019</ele>
        <time>2018-05-16T08:26:55.000Z</time>
      </trkpt>
      <trkpt lat="44.38016" lon="5.98825">
        <ele>1019.5999755859</ele>
        <time>2018-05-16T08:27:30.000Z</time>
      </trkpt>
      <trkpt lat="44.38015" lon="5.98824">
        <ele>1021.5999755859</ele>
        <time>2018-05-16T08:28:30.000Z</time>
      </trkpt>
      <trkpt lat="44.38023" lon="5.98827">
        <ele>1022.5999755859</ele>
        <time>2018-05-16T08:28:54.000Z</time>
      </trkpt>
      <trkpt lat="44.38026" lon="5.9883">
        <ele>1022.4000244141</ele>
        <time>2018-05-16T08:29:12.000Z</time>
      </trkpt>
      <trkpt lat="44.38039" lon="5.98842">
        <ele>1022</ele>
        <time>2018-05-16T08:29:33.000Z</time>
      </trkpt>
      <trkpt lat="44.38056" lon="5.98856">
        <ele>1021.4000244141</ele>
        <time>2018-05-16T08:29:57.000Z</time>
      </trkpt>
      <trkpt lat="44.38072" lon="5.98855">
        <ele>1021.4000244141</ele>
        <time>2018-05-16T08:30:19.000Z</time>
      </trkpt>
      <trkpt lat="44.38092" lon="5.98836">
        <ele>1022.799987793</ele>
        <time>2018-05-16T08:30:49.000Z</time>
      </trkpt>
      <trkpt lat="44.38096" lon="5.98862">
        <ele>1022</ele>
        <time>2018-05-16T08:31:10.000Z</time>
      </trkpt>
      <trkpt lat="44.38095" lon="5.98873">
        <ele>1021</ele>
        <time>2018-05-16T08:31:27.000Z</time>
      </trkpt>
      <trkpt lat="44.38093" lon="5.98885">
        <ele>1020.799987793</ele>
        <time>2018-05-16T08:31:45.000Z</time>
      </trkpt>
      <trkpt lat="44.38092" lon="5.98893">
        <ele>1023</ele>
        <time>2018-05-16T08:32:37.000Z</time>
      </trkpt>
      <trkpt lat="44.38093" lon="5.98893">
        <ele>1027</ele>
        <time>2018-05-16T08:33:35.000Z</time>
      </trkpt>
      <trkpt lat="44.3809" lon="5.98888">
        <ele>1024.4000244141</ele>
        <time>2018-05-16T08:34:02.000Z</time>
      </trkpt>
      <trkpt lat="44.38091" lon="5.98891">
        <ele>1024</ele>
        <time>2018-05-16T08:34:35.000Z</time>
      </trkpt>
      <trkpt lat="44.38089" lon="5.98883">
        <ele>1025.4000244141</ele>
        <time>2018-05-16T08:35:25.000Z</time>
      </trkpt>
      <trkpt lat="44.38088" lon="5.9889">
        <ele>1024.8000488281</ele>
        <time>2018-05-16T08:36:22.000Z</time>
      </trkpt>
      <trkpt lat="44.38091" lon="5.98894">
        <ele>1023.799987793</ele>
        <time>2018-05-16T08:36:58.000Z</time>
      </trkpt>
      <trkpt lat="44.38092" lon="5.98894">
        <ele>1022.5999755859</ele>
        <time>2018-05-16T08:37:32.000Z</time>
      </trkpt>
      <trkpt lat="44.3809" lon="5.98899">
        <ele>1022.200012207</ele>
        <time>2018-05-16T08:38:02.000Z</time>
      </trkpt>
      <trkpt lat="44.3809" lon="5.98901">
        <ele>1020.799987793</ele>
        <time>2018-05-16T08:38:31.000Z</time>
      </trkpt>
      <trkpt lat="44.38089" lon="5.98895">
        <ele>1020.4000244141</ele>
        <time>2018-05-16T08:38:56.000Z</time>
      </trkpt>
      <trkpt lat="44.3809" lon="5.98889">
        <ele>1022.4000244141</ele>
        <time>2018-05-16T08:39:30.000Z</time>
      </trkpt>
      <trkpt lat="44.3809" lon="5.98887">
        <ele>1025.1999511719</ele>
        <time>2018-05-16T08:40:21.000Z</time>
      </trkpt>
      <trkpt lat="44.38093" lon="5.98887">
        <ele>1023.200012207</ele>
        <time>2018-05-16T08:41:01.000Z</time>
      </trkpt>
      <trkpt lat="44.38088" lon="5.98887">
        <ele>1023.4000244141</ele>
        <time>2018-05-16T08:42:04.000Z</time>
      </trkpt>
      <trkpt lat="44.38091" lon="5.98888">
        <ele>1023.5999755859</ele>
        <time>2018-05-16T08:43:20.000Z</time>
      </trkpt>
      <trkpt lat="44.38091" lon="5.98884">
        <ele>1024.4000244141</ele>
        <time>2018-05-16T08:44:35.000Z</time>
      </trkpt>
      <trkpt lat="44.3809" lon="5.98895">
        <ele>1024</ele>
        <time>2018-05-16T08:45:28.000Z</time>
      </trkpt>
      <trkpt lat="44.3809" lon="5.98889">
        <ele>1023.799987793</ele>
        <time>2018-05-16T08:45:55.000Z</time>
      </trkpt>
      <trkpt lat="44.38093" lon="5.98881">
        <ele>1022.4000244141</ele>
        <time>2018-05-16T08:46:28.000Z</time>
      </trkpt>
      <trkpt lat="44.38097" lon="5.98857">
        <ele>1022.200012207</ele>
        <time>2018-05-16T08:46:58.000Z</time>
      </trkpt>
      <trkpt lat="44.38093" lon="5.98831">
        <ele>1022.4000244141</ele>
        <time>2018-05-16T08:47:25.000Z</time>
      </trkpt>
      <trkpt lat="44.38075" lon="5.98808">
        <ele>1022.799987793</ele>
        <time>2018-05-16T08:47:55.000Z</time>
      </trkpt>
      <trkpt lat="44.38058" lon="5.98786">
        <ele>1024</ele>
        <time>2018-05-16T08:48:24.000Z</time>
      </trkpt>
      <trkpt lat="44.38047" lon="5.9877">
        <ele>1024.5999755859</ele>
        <time>2018-05-16T08:48:43.000Z</time>
      </trkpt>
      <trkpt lat="44.38039" lon="5.9876">
        <ele>1024.8000488281</ele>
        <time>2018-05-16T08:48:53.000Z</time>
      </trkpt>
      <trkpt lat="44.38024" lon="5.98734">
        <ele>1026.1999511719</ele>
        <time>2018-05-16T08:49:27.000Z</time>
      </trkpt>
      <trkpt lat="44.38017" lon="5.98707">
        <ele>1028.1999511719</ele>
        <time>2018-05-16T08:49:56.000Z</time>
      </trkpt>
      <trkpt lat="44.38007" lon="5.98687">
        <ele>1028.8000488281</ele>
        <time>2018-05-16T08:50:24.000Z</time>
      </trkpt>
      <trkpt lat="44.38003" lon="5.98685">
        <ele>1029</ele>
        <time>2018-05-16T08:50:33.000Z</time>
      </trkpt>
      <trkpt lat="44.37986" lon="5.98682">
        <ele>1030.4000244141</ele>
        <time>2018-05-16T08:50:59.000Z</time>
      </trkpt>
      <trkpt lat="44.37964" lon="5.98683">
        <ele>1032.4000244141</ele>
        <time>2018-05-16T08:51:31.000Z</time>
      </trkpt>
      <trkpt lat="44.3795" lon="5.98683">
        <ele>1034</ele>
        <time>2018-05-16T08:51:55.000Z</time>
      </trkpt>
      <trkpt lat="44.37933" lon="5.98681">
        <ele>1036.8000488281</ele>
        <time>2018-05-16T08:52:30.000Z</time>
      </trkpt>
      <trkpt lat="44.37914" lon="5.98671">
        <ele>1040</ele>
        <time>2018-05-16T08:53:04.000Z</time>
      </trkpt>
      <trkpt lat="44.37905" lon="5.98671">
        <ele>1044.4000244141</ele>
        <time>2018-05-16T08:53:18.000Z</time>
      </trkpt>
      <trkpt lat="44.37895" lon="5.98674">
        <ele>1048.8000488281</ele>
        <time>2018-05-16T08:53:48.000Z</time>
      </trkpt>
      <trkpt lat="44.3789" lon="5.98667">
        <ele>1050</ele>
        <time>2018-05-16T08:53:58.000Z</time>
      </trkpt>
      <trkpt lat="44.37879" lon="5.98647">
        <ele>1053</ele>
        <time>2018-05-16T08:54:25.000Z</time>
      </trkpt>
      <trkpt lat="44.37873" lon="5.9862">
        <ele>1054.1999511719</ele>
        <time>2018-05-16T08:54:58.000Z</time>
      </trkpt>
      <trkpt lat="44.37864" lon="5.98598">
        <ele>1055.4000244141</ele>
        <time>2018-05-16T08:55:32.000Z</time>
      </trkpt>
      <trkpt lat="44.37853" lon="5.98581">
        <ele>1056</ele>
        <time>2018-05-16T08:56:05.000Z</time>
      </trkpt>
      <trkpt lat="44.37837" lon="5.98598">
        <ele>1057.8000488281</ele>
        <time>2018-05-16T08:56:34.000Z</time>
      </trkpt>
      <trkpt lat="44.37826" lon="5.98625">
        <ele>1058.5999755859</ele>
        <time>2018-05-16T08:57:02.000Z</time>
      </trkpt>
      <trkpt lat="44.37812" lon="5.98648">
        <ele>1061.4000244141</ele>
        <time>2018-05-16T08:57:31.000Z</time>
      </trkpt>
      <trkpt lat="44.37801" lon="5.98654">
        <ele>1062</ele>
        <time>2018-05-16T08:57:59.000Z</time>
      </trkpt>
      <trkpt lat="44.3779" lon="5.98646">
        <ele>1063.5999755859</ele>
        <time>2018-05-16T08:58:31.000Z</time>
      </trkpt>
      <trkpt lat="44.37788" lon="5.9863">
        <ele>1065.8000488281</ele>
        <time>2018-05-16T08:58:56.000Z</time>
      </trkpt>
      <trkpt lat="44.37786" lon="5.98615">
        <ele>1067.5999755859</ele>
        <time>2018-05-16T08:59:24.000Z</time>
      </trkpt>
      <trkpt lat="44.37785" lon="5.98599">
        <ele>1070.8000488281</ele>
        <time>2018-05-16T08:59:58.000Z</time>
      </trkpt>
      <trkpt lat="44.37777" lon="5.98582">
        <ele>1073</ele>
        <time>2018-05-16T09:00:29.000Z</time>
      </trkpt>
      <trkpt lat="44.37773" lon="5.98578">
        <ele>1074.5999755859</ele>
        <time>2018-05-16T09:00:54.000Z</time>
      </trkpt>
      <trkpt lat="44.37773" lon="5.98586">
        <ele>1075.5999755859</ele>
        <time>2018-05-16T09:01:01.000Z</time>
      </trkpt>
      <trkpt lat="44.37771" lon="5.98597">
        <ele>1077</ele>
        <time>2018-05-16T09:01:18.000Z</time>
      </trkpt>
      <trkpt lat="44.3777" lon="5.98607">
        <ele>1080.5999755859</ele>
        <time>2018-05-16T09:01:58.000Z</time>
      </trkpt>
      <trkpt lat="44.37765" lon="5.98604">
        <ele>1081.8000488281</ele>
        <time>2018-05-16T09:03:11.000Z</time>
      </trkpt>
      <trkpt lat="44.37767" lon="5.98588">
        <ele>1082.1999511719</ele>
        <time>2018-05-16T09:03:38.000Z</time>
      </trkpt>
      <trkpt lat="44.37768" lon="5.98577">
        <ele>1084.1999511719</ele>
        <time>2018-05-16T09:04:21.000Z</time>
      </trkpt>
      <trkpt lat="44.37767" lon="5.98589">
        <ele>1085.5999755859</ele>
        <time>2018-05-16T09:04:57.000Z</time>
      </trkpt>
      <trkpt lat="44.37762" lon="5.9857">
        <ele>1086.1999511719</ele>
        <time>2018-05-16T09:05:33.000Z</time>
      </trkpt>
      <trkpt lat="44.37758" lon="5.98566">
        <ele>1085.8000488281</ele>
        <time>2018-05-16T09:05:40.000Z</time>
      </trkpt>
      <trkpt lat="44.3775" lon="5.98567">
        <ele>1086.1999511719</ele>
        <time>2018-05-16T09:05:54.000Z</time>
      </trkpt>
      <trkpt lat="44.37733" lon="5.98587">
        <ele>1087.5999755859</ele>
        <time>2018-05-16T09:06:17.000Z</time>
      </trkpt>
      <trkpt lat="44.37713" lon="5.9861">
        <ele>1090</ele>
        <time>2018-05-16T09:06:50.000Z</time>
      </trkpt>
      <trkpt lat="44.37702" lon="5.98632">
        <ele>1092.5999755859</ele>
        <time>2018-05-16T09:07:18.000Z</time>
      </trkpt>
      <trkpt lat="44.377" lon="5.98634">
        <ele>1092.8000488281</ele>
        <time>2018-05-16T09:07:23.000Z</time>
      </trkpt>
      <trkpt lat="44.37685" lon="5.98657">
        <ele>1093.8000488281</ele>
        <time>2018-05-16T09:07:51.000Z</time>
      </trkpt>
      <trkpt lat="44.3768" lon="5.98663">
        <ele>1095.1999511719</ele>
        <time>2018-05-16T09:08:16.000Z</time>
      </trkpt>
      <trkpt lat="44.37671" lon="5.98665">
        <ele>1096.8000488281</ele>
        <time>2018-05-16T09:08:46.000Z</time>
      </trkpt>
      <trkpt lat="44.37671" lon="5.98651">
        <ele>1097.1999511719</ele>
        <time>2018-05-16T09:09:09.000Z</time>
      </trkpt>
      <trkpt lat="44.37671" lon="5.98636">
        <ele>1099.8000488281</ele>
        <time>2018-05-16T09:09:47.000Z</time>
      </trkpt>
      <trkpt lat="44.37675" lon="5.98619">
        <ele>1100.5999755859</ele>
        <time>2018-05-16T09:10:10.000Z</time>
      </trkpt>
      <trkpt lat="44.37678" lon="5.986">
        <ele>1103.5999755859</ele>
        <time>2018-05-16T09:10:39.000Z</time>
      </trkpt>
      <trkpt lat="44.37679" lon="5.98597">
        <ele>1106.8000488281</ele>
        <time>2018-05-16T09:10:51.000Z</time>
      </trkpt>
      <trkpt lat="44.37677" lon="5.98607">
        <ele>1110.5999755859</ele>
        <time>2018-05-16T09:10:58.000Z</time>
      </trkpt>
      <trkpt lat="44.37675" lon="5.98609">
        <ele>1113.5999755859</ele>
        <time>2018-05-16T09:11:13.000Z</time>
      </trkpt>
      <trkpt lat="44.37675" lon="5.98605">
        <ele>1114</ele>
        <time>2018-05-16T09:11:17.000Z</time>
      </trkpt>
      <trkpt lat="44.37674" lon="5.98592">
        <ele>1114.8000488281</ele>
        <time>2018-05-16T09:11:37.000Z</time>
      </trkpt>
      <trkpt lat="44.37665" lon="5.98582">
        <ele>1118.1999511719</ele>
        <time>2018-05-16T09:12:13.000Z</time>
      </trkpt>
      <trkpt lat="44.37675" lon="5.98561">
        <ele>1120.1999511719</ele>
        <time>2018-05-16T09:12:44.000Z</time>
      </trkpt>
      <trkpt lat="44.37675" lon="5.98558">
        <ele>1121</ele>
        <time>2018-05-16T09:12:50.000Z</time>
      </trkpt>
      <trkpt lat="44.37676" lon="5.98546">
        <ele>1122.4000244141</ele>
        <time>2018-05-16T09:13:27.000Z</time>
      </trkpt>
      <trkpt lat="44.37673" lon="5.98535">
        <ele>1122.8000488281</ele>
        <time>2018-05-16T09:13:50.000Z</time>
      </trkpt>
      <trkpt lat="44.37675" lon="5.98534">
        <ele>1122.8000488281</ele>
        <time>2018-05-16T09:13:53.000Z</time>
      </trkpt>
      <trkpt lat="44.37675" lon="5.98527">
        <ele>1128.1999511719</ele>
        <time>2018-05-16T09:14:32.000Z</time>
      </trkpt>
      <trkpt lat="44.37678" lon="5.98518">
        <ele>1131</ele>
        <time>2018-05-16T09:15:04.000Z</time>
      </trkpt>
      <trkpt lat="44.37678" lon="5.98509">
        <ele>1140</ele>
        <time>2018-05-16T09:15:48.000Z</time>
      </trkpt>
      <trkpt lat="44.37677" lon="5.98495">
        <ele>1146.4000244141</ele>
        <time>2018-05-16T09:16:26.000Z</time>
      </trkpt>
      <trkpt lat="44.3768" lon="5.9849">
        <ele>1149.1999511719</ele>
        <time>2018-05-16T09:16:52.000Z</time>
      </trkpt>
      <trkpt lat="44.37683" lon="5.9848">
        <ele>1156.4000244141</ele>
        <time>2018-05-16T09:17:30.000Z</time>
      </trkpt>
      <trkpt lat="44.37684" lon="5.98471">
        <ele>1161.4000244141</ele>
        <time>2018-05-16T09:18:16.000Z</time>
      </trkpt>
      <trkpt lat="44.37674" lon="5.98464">
        <ele>1162.4000244141</ele>
        <time>2018-05-16T09:18:47.000Z</time>
      </trkpt>
      <trkpt lat="44.37673" lon="5.98467">
        <ele>1165.1999511719</ele>
        <time>2018-05-16T09:19:48.000Z</time>
      </trkpt>
      <trkpt lat="44.37671" lon="5.9847">
        <ele>1166.1999511719</ele>
        <time>2018-05-16T09:19:51.000Z</time>
      </trkpt>
      <trkpt lat="44.37672" lon="5.98463">
        <ele>1173.5999755859</ele>
        <time>2018-05-16T09:20:54.000Z</time>
      </trkpt>
      <trkpt lat="44.37674" lon="5.98462">
        <ele>1173.8000488281</ele>
        <time>2018-05-16T09:21:21.000Z</time>
      </trkpt>
      <trkpt lat="44.37683" lon="5.98449">
        <ele>1174.8000488281</ele>
        <time>2018-05-16T09:21:54.000Z</time>
      </trkpt>
      <trkpt lat="44.37689" lon="5.98432">
        <ele>1176.5999755859</ele>
        <time>2018-05-16T09:22:25.000Z</time>
      </trkpt>
      <trkpt lat="44.37696" lon="5.98407">
        <ele>1178</ele>
        <time>2018-05-16T09:22:52.000Z</time>
      </trkpt>
      <trkpt lat="44.37707" lon="5.98388">
        <ele>1179.8000488281</ele>
        <time>2018-05-16T09:23:19.000Z</time>
      </trkpt>
      <trkpt lat="44.37719" lon="5.98368">
        <ele>1182</ele>
        <time>2018-05-16T09:23:47.000Z</time>
      </trkpt>
      <trkpt lat="44.37726" lon="5.98358">
        <ele>1184.5999755859</ele>
        <time>2018-05-16T09:24:07.000Z</time>
      </trkpt>
      <trkpt lat="44.37737" lon="5.98337">
        <ele>1206.1999511719</ele>
        <time>2018-05-16T09:25:35.000Z</time>
      </trkpt>
      <trkpt lat="44.37739" lon="5.9835">
        <ele>1211.1999511719</ele>
        <time>2018-05-16T09:26:53.000Z</time>
      </trkpt>
      <trkpt lat="44.37736" lon="5.98351">
        <ele>1215.5999755859</ele>
        <time>2018-05-16T09:28:15.000Z</time>
      </trkpt>
      <trkpt lat="44.37741" lon="5.98345">
        <ele>1215</ele>
        <time>2018-05-16T09:28:46.000Z</time>
      </trkpt>
      <trkpt lat="44.37738" lon="5.98341">
        <ele>1215</ele>
        <time>2018-05-16T09:29:21.000Z</time>
      </trkpt>
      <trkpt lat="44.37739" lon="5.98325">
        <ele>1215</ele>
        <time>2018-05-16T09:29:53.000Z</time>
      </trkpt>
      <trkpt lat="44.37736" lon="5.98308">
        <ele>1217.1999511719</ele>
        <time>2018-05-16T09:30:29.000Z</time>
      </trkpt>
      <trkpt lat="44.37735" lon="5.98306">
        <ele>1218.1999511719</ele>
        <time>2018-05-16T09:30:35.000Z</time>
      </trkpt>
      <trkpt lat="44.37735" lon="5.98316">
        <ele>1221</ele>
        <time>2018-05-16T09:31:02.000Z</time>
      </trkpt>
      <trkpt lat="44.37722" lon="5.98322">
        <ele>1221.5999755859</ele>
        <time>2018-05-16T09:31:29.000Z</time>
      </trkpt>
      <trkpt lat="44.37714" lon="5.98325">
        <ele>1226.1999511719</ele>
        <time>2018-05-16T09:32:03.000Z</time>
      </trkpt>
      <trkpt lat="44.37702" lon="5.98324">
        <ele>1226.5999755859</ele>
        <time>2018-05-16T09:32:31.000Z</time>
      </trkpt>
      <trkpt lat="44.37696" lon="5.98326">
        <ele>1229.1999511719</ele>
        <time>2018-05-16T09:32:46.000Z</time>
      </trkpt>
      <trkpt lat="44.37691" lon="5.98329">
        <ele>1240.5999755859</ele>
        <time>2018-05-16T09:33:23.000Z</time>
      </trkpt>
      <trkpt lat="44.37689" lon="5.98334">
        <ele>1241.4000244141</ele>
        <time>2018-05-16T09:34:10.000Z</time>
      </trkpt>
      <trkpt lat="44.37688" lon="5.98331">
        <ele>1242.4000244141</ele>
        <time>2018-05-16T09:34:36.000Z</time>
      </trkpt>
      <trkpt lat="44.37687" lon="5.9833">
        <ele>1247.5999755859</ele>
        <time>2018-05-16T09:35:40.000Z</time>
      </trkpt>
      <trkpt lat="44.37694" lon="5.98324">
        <ele>1247.4000244141</ele>
        <time>2018-05-16T09:36:03.000Z</time>
      </trkpt>
      <trkpt lat="44.37705" lon="5.98313">
        <ele>1246.4000244141</ele>
        <time>2018-05-16T09:36:29.000Z</time>
      </trkpt>
      <trkpt lat="44.37709" lon="5.98301">
        <ele>1246.4000244141</ele>
        <time>2018-05-16T09:36:46.000Z</time>
      </trkpt>
      <trkpt lat="44.37714" lon="5.98287">
        <ele>1247.5999755859</ele>
        <time>2018-05-16T09:37:13.000Z</time>
      </trkpt>
      <trkpt lat="44.3771" lon="5.98283">
        <ele>1248.8000488281</ele>
        <time>2018-05-16T09:37:46.000Z</time>
      </trkpt>
      <trkpt lat="44.37715" lon="5.98279">
        <ele>1250</ele>
        <time>2018-05-16T09:38:11.000Z</time>
      </trkpt>
      <trkpt lat="44.37718" lon="5.98277">
        <ele>1250.1999511719</ele>
        <time>2018-05-16T09:38:31.000Z</time>
      </trkpt>
      <trkpt lat="44.37719" lon="5.9827">
        <ele>1251.1999511719</ele>
        <time>2018-05-16T09:39:05.000Z</time>
      </trkpt>
      <trkpt lat="44.37724" lon="5.98261">
        <ele>1251.4000244141</ele>
        <time>2018-05-16T09:39:24.000Z</time>
      </trkpt>
      <trkpt lat="44.37728" lon="5.98244">
        <ele>1252.1999511719</ele>
        <time>2018-05-16T09:39:43.000Z</time>
      </trkpt>
      <trkpt lat="44.37732" lon="5.98227">
        <ele>1252.4000244141</ele>
        <time>2018-05-16T09:39:58.000Z</time>
      </trkpt>
      <trkpt lat="44.3774" lon="5.98208">
        <ele>1251</ele>
        <time>2018-05-16T09:40:20.000Z</time>
      </trkpt>
      <trkpt lat="44.37746" lon="5.98191">
        <ele>1250.8000488281</ele>
        <time>2018-05-16T09:40:39.000Z</time>
      </trkpt>
      <trkpt lat="44.37756" lon="5.98178">
        <ele>1250.5999755859</ele>
        <time>2018-05-16T09:40:55.000Z</time>
      </trkpt>
      <trkpt lat="44.3776" lon="5.98171">
        <ele>1251.8000488281</ele>
        <time>2018-05-16T09:41:13.000Z</time>
      </trkpt>
      <trkpt lat="44.37769" lon="5.98159">
        <ele>1252.4000244141</ele>
        <time>2018-05-16T09:41:29.000Z</time>
      </trkpt>
      <trkpt lat="44.37775" lon="5.98151">
        <ele>1252.8000488281</ele>
        <time>2018-05-16T09:41:44.000Z</time>
      </trkpt>
      <trkpt lat="44.37783" lon="5.98141">
        <ele>1252.8000488281</ele>
        <time>2018-05-16T09:42:01.000Z</time>
      </trkpt>
      <trkpt lat="44.37792" lon="5.98131">
        <ele>1252</ele>
        <time>2018-05-16T09:42:18.000Z</time>
      </trkpt>
      <trkpt lat="44.37802" lon="5.98125">
        <ele>1251.8000488281</ele>
        <time>2018-05-16T09:42:31.000Z</time>
      </trkpt>
      <trkpt lat="44.37819" lon="5.98118">
        <ele>1251.4000244141</ele>
        <time>2018-05-16T09:42:48.000Z</time>
      </trkpt>
      <trkpt lat="44.37822" lon="5.98119">
        <ele>1251.1999511719</ele>
        <time>2018-05-16T09:42:51.000Z</time>
      </trkpt>
      <trkpt lat="44.37833" lon="5.98113">
        <ele>1251.5999755859</ele>
        <time>2018-05-16T09:43:08.000Z</time>
      </trkpt>
      <trkpt lat="44.37843" lon="5.9811">
        <ele>1254.4000244141</ele>
        <time>2018-05-16T09:43:23.000Z</time>
      </trkpt>
      <trkpt lat="44.37854" lon="5.98108">
        <ele>1256.5999755859</ele>
        <time>2018-05-16T09:43:40.000Z</time>
      </trkpt>
      <trkpt lat="44.37859" lon="5.98105">
        <ele>1258.4000244141</ele>
        <time>2018-05-16T09:43:58.000Z</time>
      </trkpt>
      <trkpt lat="44.37866" lon="5.98107">
        <ele>1259.5999755859</ele>
        <time>2018-05-16T09:44:17.000Z</time>
      </trkpt>
      <trkpt lat="44.37875" lon="5.98111">
        <ele>1257.8000488281</ele>
        <time>2018-05-16T09:44:32.000Z</time>
      </trkpt>
      <trkpt lat="44.37882" lon="5.98114">
        <ele>1257.1999511719</ele>
        <time>2018-05-16T09:44:56.000Z</time>
      </trkpt>
      <trkpt lat="44.37884" lon="5.98119">
        <ele>1255.1999511719</ele>
        <time>2018-05-16T09:45:14.000Z</time>
      </trkpt>
      <trkpt lat="44.37885" lon="5.98125">
        <ele>1253.4000244141</ele>
        <time>2018-05-16T09:45:32.000Z</time>
      </trkpt>
      <trkpt lat="44.37889" lon="5.98132">
        <ele>1251.1999511719</ele>
        <time>2018-05-16T09:46:06.000Z</time>
      </trkpt>
      <trkpt lat="44.37892" lon="5.98133">
        <ele>1250.4000244141</ele>
        <time>2018-05-16T09:46:22.000Z</time>
      </trkpt>
      <trkpt lat="44.37892" lon="5.98134">
        <ele>1249.4000244141</ele>
        <time>2018-05-16T09:46:45.000Z</time>
      </trkpt>
      <trkpt lat="44.37895" lon="5.98131">
        <ele>1249.1999511719</ele>
        <time>2018-05-16T09:47:12.000Z</time>
      </trkpt>
      <trkpt lat="44.37895" lon="5.98131">
        <ele>1249.4000244141</ele>
        <time>2018-05-16T09:47:57.000Z</time>
      </trkpt>
      <trkpt lat="44.37896" lon="5.98133">
        <ele>1248.5999755859</ele>
        <time>2018-05-16T09:49:00.000Z</time>
      </trkpt>
      <trkpt lat="44.37898" lon="5.98128">
        <ele>1249.8000488281</ele>
        <time>2018-05-16T09:49:49.000Z</time>
      </trkpt>
      <trkpt lat="44.379" lon="5.98125">
        <ele>1250.4000244141</ele>
        <time>2018-05-16T09:50:13.000Z</time>
      </trkpt>
      <trkpt lat="44.37899" lon="5.98126">
        <ele>1253</ele>
        <time>2018-05-16T09:51:00.000Z</time>
      </trkpt>
      <trkpt lat="44.37898" lon="5.98123">
        <ele>1255.1999511719</ele>
        <time>2018-05-16T09:51:53.000Z</time>
      </trkpt>
      <trkpt lat="44.379" lon="5.98124">
        <ele>1255.1999511719</ele>
        <time>2018-05-16T09:52:43.000Z</time>
      </trkpt>
      <trkpt lat="44.37896" lon="5.98121">
        <ele>1254.5999755859</ele>
        <time>2018-05-16T09:53:21.000Z</time>
      </trkpt>
      <trkpt lat="44.3789" lon="5.98117">
        <ele>1253.5999755859</ele>
        <time>2018-05-16T09:53:45.000Z</time>
      </trkpt>
      <trkpt lat="44.37885" lon="5.98116">
        <ele>1253.1999511719</ele>
        <time>2018-05-16T09:54:08.000Z</time>
      </trkpt>
      <trkpt lat="44.37876" lon="5.98113">
        <ele>1253.5999755859</ele>
        <time>2018-05-16T09:54:28.000Z</time>
      </trkpt>
      <trkpt lat="44.37865" lon="5.98109">
        <ele>1253.5999755859</ele>
        <time>2018-05-16T09:54:48.000Z</time>
      </trkpt>
      <trkpt lat="44.37858" lon="5.98104">
        <ele>1254.4000244141</ele>
        <time>2018-05-16T09:55:09.000Z</time>
      </trkpt>
      <trkpt lat="44.37854" lon="5.98105">
        <ele>1255.1999511719</ele>
        <time>2018-05-16T09:55:33.000Z</time>
      </trkpt>
      <trkpt lat="44.37855" lon="5.98105">
        <ele>1256.8000488281</ele>
        <time>2018-05-16T09:56:05.000Z</time>
      </trkpt>
      <trkpt lat="44.37859" lon="5.98105">
        <ele>1255.5999755859</ele>
        <time>2018-05-16T09:57:12.000Z</time>
      </trkpt>
      <trkpt lat="44.37857" lon="5.98108">
        <ele>1256.4000244141</ele>
        <time>2018-05-16T09:58:05.000Z</time>
      </trkpt>
      <trkpt lat="44.37856" lon="5.98107">
        <ele>1256.1999511719</ele>
        <time>2018-05-16T09:58:22.000Z</time>
      </trkpt>
      <trkpt lat="44.37854" lon="5.98104">
        <ele>1255.8000488281</ele>
        <time>2018-05-16T09:59:16.000Z</time>
      </trkpt>
      <trkpt lat="44.37855" lon="5.98105">
        <ele>1254.8000488281</ele>
        <time>2018-05-16T10:00:04.000Z</time>
      </trkpt>
      <trkpt lat="44.37857" lon="5.98108">
        <ele>1254.8000488281</ele>
        <time>2018-05-16T10:00:50.000Z</time>
      </trkpt>
      <trkpt lat="44.3786" lon="5.98112">
        <ele>1254.5999755859</ele>
        <time>2018-05-16T10:01:23.000Z</time>
      </trkpt>
      <trkpt lat="44.37858" lon="5.98107">
        <ele>1255.5999755859</ele>
        <time>2018-05-16T10:02:19.000Z</time>
      </trkpt>
      <trkpt lat="44.37858" lon="5.98111">
        <ele>1254.8000488281</ele>
        <time>2018-05-16T10:03:09.000Z</time>
      </trkpt>
      <trkpt lat="44.37855" lon="5.98107">
        <ele>1254</ele>
        <time>2018-05-16T10:03:45.000Z</time>
      </trkpt>
      <trkpt lat="44.37856" lon="5.98109">
        <ele>1253.5999755859</ele>
        <time>2018-05-16T10:04:35.000Z</time>
      </trkpt>
      <trkpt lat="44.37856" lon="5.98107">
        <ele>1253.4000244141</ele>
        <time>2018-05-16T10:05:24.000Z</time>
      </trkpt>
      <trkpt lat="44.37855" lon="5.98106">
        <ele>1253.8000488281</ele>
        <time>2018-05-16T10:06:31.000Z</time>
      </trkpt>
      <trkpt lat="44.37856" lon="5.98109">
        <ele>1252</ele>
        <time>2018-05-16T10:07:28.000Z</time>
      </trkpt>
      <trkpt lat="44.37857" lon="5.98109">
        <ele>1252.8000488281</ele>
        <time>2018-05-16T10:08:18.000Z</time>
      </trkpt>
      <trkpt lat="44.37856" lon="5.98109">
        <ele>1253.1999511719</ele>
        <time>2018-05-16T10:09:11.000Z</time>
      </trkpt>
      <trkpt lat="44.37855" lon="5.98106">
        <ele>1254.5999755859</ele>
        <time>2018-05-16T10:10:02.000Z</time>
      </trkpt>
      <trkpt lat="44.37856" lon="5.98106">
        <ele>1254.5999755859</ele>
        <time>2018-05-16T10:11:02.000Z</time>
      </trkpt>
      <trkpt lat="44.37854" lon="5.98106">
        <ele>1255.8000488281</ele>
        <time>2018-05-16T10:12:05.000Z</time>
      </trkpt>
      <trkpt lat="44.37856" lon="5.98106">
        <ele>1255.8000488281</ele>
        <time>2018-05-16T10:13:17.000Z</time>
      </trkpt>
      <trkpt lat="44.37856" lon="5.98107">
        <ele>1255.5999755859</ele>
        <time>2018-05-16T10:14:12.000Z</time>
      </trkpt>
      <trkpt lat="44.37856" lon="5.98106">
        <ele>1254.8000488281</ele>
        <time>2018-05-16T10:15:08.000Z</time>
      </trkpt>
      <trkpt lat="44.37856" lon="5.98107">
        <ele>1254</ele>
        <time>2018-05-16T10:15:51.000Z</time>
      </trkpt>
      <trkpt lat="44.37857" lon="5.98108">
        <ele>1254</ele>
        <time>2018-05-16T10:16:53.000Z</time>
      </trkpt>
      <trkpt lat="44.37859" lon="5.9811">
        <ele>1253.8000488281</ele>
        <time>2018-05-16T10:17:42.000Z</time>
      </trkpt>
      <trkpt lat="44.37856" lon="5.98107">
        <ele>1253.1999511719</ele>
        <time>2018-05-16T10:18:25.000Z</time>
      </trkpt>
      <trkpt lat="44.37857" lon="5.98106">
        <ele>1251.4000244141</ele>
        <time>2018-05-16T10:19:20.000Z</time>
      </trkpt>
      <trkpt lat="44.37857" lon="5.98106">
        <ele>1253.5999755859</ele>
        <time>2018-05-16T10:20:23.000Z</time>
      </trkpt>
      <trkpt lat="44.37857" lon="5.98107">
        <ele>1253.5999755859</ele>
        <time>2018-05-16T10:21:27.000Z</time>
      </trkpt>
      <trkpt lat="44.37856" lon="5.98105">
        <ele>1253.8000488281</ele>
        <time>2018-05-16T10:22:51.000Z</time>
      </trkpt>
      <trkpt lat="44.37857" lon="5.98104">
        <ele>1253.1999511719</ele>
        <time>2018-05-16T10:23:57.000Z</time>
      </trkpt>
      <trkpt lat="44.37857" lon="5.98106">
        <ele>1252.8000488281</ele>
        <time>2018-05-16T10:25:00.000Z</time>
      </trkpt>
      <trkpt lat="44.37857" lon="5.98105">
        <ele>1252.4000244141</ele>
        <time>2018-05-16T10:25:51.000Z</time>
      </trkpt>
      <trkpt lat="44.37857" lon="5.98105">
        <ele>1253</ele>
        <time>2018-05-16T10:26:58.000Z</time>
      </trkpt>
      <trkpt lat="44.37857" lon="5.98105">
        <ele>1252.4000244141</ele>
        <time>2018-05-16T10:27:51.000Z</time>
      </trkpt>
      <trkpt lat="44.37856" lon="5.98106">
        <ele>1251.4000244141</ele>
        <time>2018-05-16T10:28:52.000Z</time>
      </trkpt>
      <trkpt lat="44.37856" lon="5.98108">
        <ele>1251.4000244141</ele>
        <time>2018-05-16T10:29:24.000Z</time>
      </trkpt>
      <trkpt lat="44.37856" lon="5.98106">
        <ele>1251.8000488281</ele>
        <time>2018-05-16T10:30:22.000Z</time>
      </trkpt>
      <trkpt lat="44.37856" lon="5.98106">
        <ele>1252.5999755859</ele>
        <time>2018-05-16T10:31:20.000Z</time>
      </trkpt>
      <trkpt lat="44.37857" lon="5.98107">
        <ele>1252.5999755859</ele>
        <time>2018-05-16T10:32:28.000Z</time>
      </trkpt>
      <trkpt lat="44.37857" lon="5.98107">
        <ele>1253</ele>
        <time>2018-05-16T10:33:43.000Z</time>
      </trkpt>
      <trkpt lat="44.37857" lon="5.98107">
        <ele>1252.5999755859</ele>
        <time>2018-05-16T10:34:47.000Z</time>
      </trkpt>
      <trkpt lat="44.37857" lon="5.98108">
        <ele>1252.8000488281</ele>
        <time>2018-05-16T10:35:35.000Z</time>
      </trkpt>
      <trkpt lat="44.37857" lon="5.98105">
        <ele>1253.5999755859</ele>
        <time>2018-05-16T10:36:39.000Z</time>
      </trkpt>
      <trkpt lat="44.37857" lon="5.98105">
        <ele>1254.4000244141</ele>
        <time>2018-05-16T10:38:01.000Z</time>
      </trkpt>
      <trkpt lat="44.37857" lon="5.98106">
        <ele>1254.5999755859</ele>
        <time>2018-05-16T10:39:18.000Z</time>
      </trkpt>
      <trkpt lat="44.37857" lon="5.98105">
        <ele>1254.4000244141</ele>
        <time>2018-05-16T10:40:21.000Z</time>
      </trkpt>
      <trkpt lat="44.37856" lon="5.98104">
        <ele>1255.1999511719</ele>
        <time>2018-05-16T10:41:49.000Z</time>
      </trkpt>
      <trkpt lat="44.37856" lon="5.98107">
        <ele>1257.4000244141</ele>
        <time>2018-05-16T10:42:55.000Z</time>
      </trkpt>
      <trkpt lat="44.37856" lon="5.98107">
        <ele>1257.8000488281</ele>
        <time>2018-05-16T10:43:57.000Z</time>
      </trkpt>
      <trkpt lat="44.37858" lon="5.98107">
        <ele>1258.4000244141</ele>
        <time>2018-05-16T10:44:43.000Z</time>
      </trkpt>
      <trkpt lat="44.37857" lon="5.98104">
        <ele>1258</ele>
        <time>2018-05-16T10:45:51.000Z</time>
      </trkpt>
      <trkpt lat="44.37852" lon="5.98107">
        <ele>1256.1999511719</ele>
        <time>2018-05-16T10:46:26.000Z</time>
      </trkpt>
      <trkpt lat="44.37845" lon="5.98111">
        <ele>1255.8000488281</ele>
        <time>2018-05-16T10:47:03.000Z</time>
      </trkpt>
      <trkpt lat="44.37836" lon="5.98111">
        <ele>1254</ele>
        <time>2018-05-16T10:47:22.000Z</time>
      </trkpt>
      <trkpt lat="44.37823" lon="5.98116">
        <ele>1252</ele>
        <time>2018-05-16T10:47:43.000Z</time>
      </trkpt>
      <trkpt lat="44.37809" lon="5.98121">
        <ele>1249.5999755859</ele>
        <time>2018-05-16T10:48:02.000Z</time>
      </trkpt>
      <trkpt lat="44.37794" lon="5.98132">
        <ele>1247</ele>
        <time>2018-05-16T10:48:28.000Z</time>
      </trkpt>
      <trkpt lat="44.37782" lon="5.98143">
        <ele>1245.5999755859</ele>
        <time>2018-05-16T10:48:51.000Z</time>
      </trkpt>
      <trkpt lat="44.37771" lon="5.98154">
        <ele>1245.1999511719</ele>
        <time>2018-05-16T10:49:12.000Z</time>
      </trkpt>
      <trkpt lat="44.37765" lon="5.98165">
        <ele>1245.5999755859</ele>
        <time>2018-05-16T10:49:32.000Z</time>
      </trkpt>
      <trkpt lat="44.37757" lon="5.98175">
        <ele>1246.1999511719</ele>
        <time>2018-05-16T10:49:54.000Z</time>
      </trkpt>
      <trkpt lat="44.3775" lon="5.98181">
        <ele>1247</ele>
        <time>2018-05-16T10:50:14.000Z</time>
      </trkpt>
      <trkpt lat="44.37745" lon="5.98195">
        <ele>1247</ele>
        <time>2018-05-16T10:50:33.000Z</time>
      </trkpt>
      <trkpt lat="44.37739" lon="5.98214">
        <ele>1247.1999511719</ele>
        <time>2018-05-16T10:51:04.000Z</time>
      </trkpt>
      <trkpt lat="44.37733" lon="5.98231">
        <ele>1247.1999511719</ele>
        <time>2018-05-16T10:51:26.000Z</time>
      </trkpt>
      <trkpt lat="44.37729" lon="5.98251">
        <ele>1247</ele>
        <time>2018-05-16T10:51:46.000Z</time>
      </trkpt>
      <trkpt lat="44.37723" lon="5.98266">
        <ele>1246.8000488281</ele>
        <time>2018-05-16T10:52:10.000Z</time>
      </trkpt>
      <trkpt lat="44.37717" lon="5.98288">
        <ele>1246.5999755859</ele>
        <time>2018-05-16T10:52:36.000Z</time>
      </trkpt>
      <trkpt lat="44.3771" lon="5.98301">
        <ele>1246.5999755859</ele>
        <time>2018-05-16T10:52:57.000Z</time>
      </trkpt>
      <trkpt lat="44.37701" lon="5.98317">
        <ele>1246.4000244141</ele>
        <time>2018-05-16T10:53:19.000Z</time>
      </trkpt>
      <trkpt lat="44.37691" lon="5.98327">
        <ele>1245.5999755859</ele>
        <time>2018-05-16T10:53:39.000Z</time>
      </trkpt>
      <trkpt lat="44.37686" lon="5.98328">
        <ele>1244.4000244141</ele>
        <time>2018-05-16T10:54:00.000Z</time>
      </trkpt>
      <trkpt lat="44.37688" lon="5.98331">
        <ele>1245.4000244141</ele>
        <time>2018-05-16T10:55:11.000Z</time>
      </trkpt>
      <trkpt lat="44.37688" lon="5.98332">
        <ele>1245.1999511719</ele>
        <time>2018-05-16T10:56:16.000Z</time>
      </trkpt>
      <trkpt lat="44.3769" lon="5.98335">
        <ele>1247.8000488281</ele>
        <time>2018-05-16T10:57:15.000Z</time>
      </trkpt>
      <trkpt lat="44.37689" lon="5.98332">
        <ele>1248.4000244141</ele>
        <time>2018-05-16T10:58:07.000Z</time>
      </trkpt>
      <trkpt lat="44.37688" lon="5.98334">
        <ele>1248.4000244141</ele>
        <time>2018-05-16T10:58:57.000Z</time>
      </trkpt>
      <trkpt lat="44.37679" lon="5.98339">
        <ele>1247.1999511719</ele>
        <time>2018-05-16T10:59:32.000Z</time>
      </trkpt>
      <trkpt lat="44.37664" lon="5.98351">
        <ele>1246.8000488281</ele>
        <time>2018-05-16T10:59:58.000Z</time>
      </trkpt>
      <trkpt lat="44.37652" lon="5.98357">
        <ele>1245.8000488281</ele>
        <time>2018-05-16T11:00:19.000Z</time>
      </trkpt>
      <trkpt lat="44.37643" lon="5.98369">
        <ele>1244.1999511719</ele>
        <time>2018-05-16T11:00:41.000Z</time>
      </trkpt>
      <trkpt lat="44.37635" lon="5.98376">
        <ele>1243</ele>
        <time>2018-05-16T11:01:01.000Z</time>
      </trkpt>
      <trkpt lat="44.37625" lon="5.9838">
        <ele>1240.5999755859</ele>
        <time>2018-05-16T11:01:31.000Z</time>
      </trkpt>
      <trkpt lat="44.37625" lon="5.98381">
        <ele>1238.1999511719</ele>
        <time>2018-05-16T11:02:44.000Z</time>
      </trkpt>
      <trkpt lat="44.37621" lon="5.98377">
        <ele>1236.5999755859</ele>
        <time>2018-05-16T11:03:11.000Z</time>
      </trkpt>
      <trkpt lat="44.37626" lon="5.98366">
        <ele>1235.5999755859</ele>
        <time>2018-05-16T11:03:35.000Z</time>
      </trkpt>
      <trkpt lat="44.37623" lon="5.98361">
        <ele>1233.8000488281</ele>
        <time>2018-05-16T11:03:50.000Z</time>
      </trkpt>
      <trkpt lat="44.37615" lon="5.98363">
        <ele>1231.8000488281</ele>
        <time>2018-05-16T11:04:10.000Z</time>
      </trkpt>
      <trkpt lat="44.3761" lon="5.98365">
        <ele>1231.4000244141</ele>
        <time>2018-05-16T11:04:26.000Z</time>
      </trkpt>
      <trkpt lat="44.37593" lon="5.9837">
        <ele>1229.5999755859</ele>
        <time>2018-05-16T11:04:44.000Z</time>
      </trkpt>
      <trkpt lat="44.37578" lon="5.98368">
        <ele>1227.1999511719</ele>
        <time>2018-05-16T11:05:04.000Z</time>
      </trkpt>
      <trkpt lat="44.37571" lon="5.98368">
        <ele>1227.1999511719</ele>
        <time>2018-05-16T11:05:30.000Z</time>
      </trkpt>
      <trkpt lat="44.37556" lon="5.98366">
        <ele>1225.1999511719</ele>
        <time>2018-05-16T11:05:52.000Z</time>
      </trkpt>
      <trkpt lat="44.3754" lon="5.98368">
        <ele>1222.8000488281</ele>
        <time>2018-05-16T11:06:15.000Z</time>
      </trkpt>
      <trkpt lat="44.37522" lon="5.98372">
        <ele>1219.8000488281</ele>
        <time>2018-05-16T11:06:37.000Z</time>
      </trkpt>
      <trkpt lat="44.37498" lon="5.98368">
        <ele>1217.4000244141</ele>
        <time>2018-05-16T11:07:01.000Z</time>
      </trkpt>
      <trkpt lat="44.37472" lon="5.98361">
        <ele>1213.8000488281</ele>
        <time>2018-05-16T11:07:25.000Z</time>
      </trkpt>
      <trkpt lat="44.37451" lon="5.98362">
        <ele>1209.1999511719</ele>
        <time>2018-05-16T11:07:51.000Z</time>
      </trkpt>
      <trkpt lat="44.37443" lon="5.98381">
        <ele>1205.1999511719</ele>
        <time>2018-05-16T11:08:13.000Z</time>
      </trkpt>
      <trkpt lat="44.3744" lon="5.98386">
        <ele>1203.8000488281</ele>
        <time>2018-05-16T11:08:42.000Z</time>
      </trkpt>
      <trkpt lat="44.37441" lon="5.98381">
        <ele>1201.4000244141</ele>
        <time>2018-05-16T11:09:24.000Z</time>
      </trkpt>
      <trkpt lat="44.37439" lon="5.98384">
        <ele>1198.8000488281</ele>
        <time>2018-05-16T11:10:37.000Z</time>
      </trkpt>
      <trkpt lat="44.37432" lon="5.98404">
        <ele>1197.8000488281</ele>
        <time>2018-05-16T11:11:02.000Z</time>
      </trkpt>
      <trkpt lat="44.37416" lon="5.98429">
        <ele>1195.5999755859</ele>
        <time>2018-05-16T11:11:34.000Z</time>
      </trkpt>
      <trkpt lat="44.37407" lon="5.98434">
        <ele>1193.4000244141</ele>
        <time>2018-05-16T11:11:59.000Z</time>
      </trkpt>
      <trkpt lat="44.37397" lon="5.98442">
        <ele>1191.4000244141</ele>
        <time>2018-05-16T11:12:19.000Z</time>
      </trkpt>
      <trkpt lat="44.37385" lon="5.98447">
        <ele>1189.8000488281</ele>
        <time>2018-05-16T11:12:36.000Z</time>
      </trkpt>
      <trkpt lat="44.37373" lon="5.98458">
        <ele>1187</ele>
        <time>2018-05-16T11:12:58.000Z</time>
      </trkpt>
      <trkpt lat="44.3736" lon="5.98473">
        <ele>1182.4000244141</ele>
        <time>2018-05-16T11:13:24.000Z</time>
      </trkpt>
      <trkpt lat="44.3735" lon="5.98489">
        <ele>1178.4000244141</ele>
        <time>2018-05-16T11:13:48.000Z</time>
      </trkpt>
      <trkpt lat="44.37342" lon="5.98503">
        <ele>1175.8000488281</ele>
        <time>2018-05-16T11:14:11.000Z</time>
      </trkpt>
      <trkpt lat="44.37327" lon="5.98515">
        <ele>1171</ele>
        <time>2018-05-16T11:14:36.000Z</time>
      </trkpt>
      <trkpt lat="44.37315" lon="5.9853">
        <ele>1168.1999511719</ele>
        <time>2018-05-16T11:14:57.000Z</time>
      </trkpt>
      <trkpt lat="44.373" lon="5.98563">
        <ele>1162</ele>
        <time>2018-05-16T11:15:30.000Z</time>
      </trkpt>
      <trkpt lat="44.37291" lon="5.98592">
        <ele>1157.1999511719</ele>
        <time>2018-05-16T11:15:53.000Z</time>
      </trkpt>
      <trkpt lat="44.37272" lon="5.98611">
        <ele>1151.4000244141</ele>
        <time>2018-05-16T11:16:22.000Z</time>
      </trkpt>
      <trkpt lat="44.37263" lon="5.98628">
        <ele>1147.5999755859</ele>
        <time>2018-05-16T11:16:44.000Z</time>
      </trkpt>
      <trkpt lat="44.37251" lon="5.98635">
        <ele>1143.8000488281</ele>
        <time>2018-05-16T11:17:11.000Z</time>
      </trkpt>
      <trkpt lat="44.37238" lon="5.98636">
        <ele>1140.5999755859</ele>
        <time>2018-05-16T11:17:37.000Z</time>
      </trkpt>
      <trkpt lat="44.37223" lon="5.98644">
        <ele>1137</ele>
        <time>2018-05-16T11:18:04.000Z</time>
      </trkpt>
      <trkpt lat="44.37218" lon="5.98643">
        <ele>1130.1999511719</ele>
        <time>2018-05-16T11:18:27.000Z</time>
      </trkpt>
      <trkpt lat="44.37218" lon="5.9864">
        <ele>1124.8000488281</ele>
        <time>2018-05-16T11:18:46.000Z</time>
      </trkpt>
      <trkpt lat="44.37214" lon="5.98641">
        <ele>1121.8000488281</ele>
        <time>2018-05-16T11:19:13.000Z</time>
      </trkpt>
      <trkpt lat="44.3721" lon="5.98647">
        <ele>1119</ele>
        <time>2018-05-16T11:19:35.000Z</time>
      </trkpt>
      <trkpt lat="44.37208" lon="5.9864">
        <ele>1116.1999511719</ele>
        <time>2018-05-16T11:19:54.000Z</time>
      </trkpt>
      <trkpt lat="44.37204" lon="5.9864">
        <ele>1115.5999755859</ele>
        <time>2018-05-16T11:20:11.000Z</time>
      </trkpt>
      <trkpt lat="44.37202" lon="5.98633">
        <ele>1111.5999755859</ele>
        <time>2018-05-16T11:20:37.000Z</time>
      </trkpt>
      <trkpt lat="44.37204" lon="5.98625">
        <ele>1110</ele>
        <time>2018-05-16T11:21:00.000Z</time>
      </trkpt>
      <trkpt lat="44.372" lon="5.98628">
        <ele>1108</ele>
        <time>2018-05-16T11:21:17.000Z</time>
      </trkpt>
      <trkpt lat="44.37202" lon="5.98626">
        <ele>1105.1999511719</ele>
        <time>2018-05-16T11:21:52.000Z</time>
      </trkpt>
      <trkpt lat="44.372" lon="5.98618">
        <ele>1102.5999755859</ele>
        <time>2018-05-16T11:22:08.000Z</time>
      </trkpt>
      <trkpt lat="44.37199" lon="5.98608">
        <ele>1098.4000244141</ele>
        <time>2018-05-16T11:22:26.000Z</time>
      </trkpt>
      <trkpt lat="44.37188" lon="5.98605">
        <ele>1093.8000488281</ele>
        <time>2018-05-16T11:22:48.000Z</time>
      </trkpt>
      <trkpt lat="44.37178" lon="5.98602">
        <ele>1090.1999511719</ele>
        <time>2018-05-16T11:23:05.000Z</time>
      </trkpt>
      <trkpt lat="44.37164" lon="5.98605">
        <ele>1085.8000488281</ele>
        <time>2018-05-16T11:23:28.000Z</time>
      </trkpt>
      <trkpt lat="44.37155" lon="5.98609">
        <ele>1082.4000244141</ele>
        <time>2018-05-16T11:23:47.000Z</time>
      </trkpt>
      <trkpt lat="44.37138" lon="5.9861">
        <ele>1077.8000488281</ele>
        <time>2018-05-16T11:24:14.000Z</time>
      </trkpt>
      <trkpt lat="44.37124" lon="5.98612">
        <ele>1073.5999755859</ele>
        <time>2018-05-16T11:24:37.000Z</time>
      </trkpt>
      <trkpt lat="44.37109" lon="5.98617">
        <ele>1069.5999755859</ele>
        <time>2018-05-16T11:24:58.000Z</time>
      </trkpt>
      <trkpt lat="44.37096" lon="5.98628">
        <ele>1065.5999755859</ele>
        <time>2018-05-16T11:25:19.000Z</time>
      </trkpt>
      <trkpt lat="44.37082" lon="5.98632">
        <ele>1063</ele>
        <time>2018-05-16T11:25:32.000Z</time>
      </trkpt>
      <trkpt lat="44.37067" lon="5.98633">
        <ele>1059.5999755859</ele>
        <time>2018-05-16T11:25:49.000Z</time>
      </trkpt>
      <trkpt lat="44.37051" lon="5.9863">
        <ele>1056</ele>
        <time>2018-05-16T11:26:10.000Z</time>
      </trkpt>
      <trkpt lat="44.37042" lon="5.9862">
        <ele>1051</ele>
        <time>2018-05-16T11:26:28.000Z</time>
      </trkpt>
      <trkpt lat="44.37039" lon="5.98615">
        <ele>1049.1999511719</ele>
        <time>2018-05-16T11:26:36.000Z</time>
      </trkpt>
      <trkpt lat="44.3703" lon="5.98612">
        <ele>1047.8000488281</ele>
        <time>2018-05-16T11:26:50.000Z</time>
      </trkpt>
      <trkpt lat="44.37012" lon="5.98619">
        <ele>1045.5999755859</ele>
        <time>2018-05-16T11:27:13.000Z</time>
      </trkpt>
      <trkpt lat="44.36997" lon="5.98627">
        <ele>1043.4000244141</ele>
        <time>2018-05-16T11:27:35.000Z</time>
      </trkpt>
      <trkpt lat="44.36984" lon="5.98635">
        <ele>1041.5999755859</ele>
        <time>2018-05-16T11:27:55.000Z</time>
      </trkpt>
      <trkpt lat="44.36974" lon="5.98642">
        <ele>1039</ele>
        <time>2018-05-16T11:28:16.000Z</time>
      </trkpt>
      <trkpt lat="44.36966" lon="5.98649">
        <ele>1037.4000244141</ele>
        <time>2018-05-16T11:28:35.000Z</time>
      </trkpt>
      <trkpt lat="44.36954" lon="5.98645">
        <ele>1034.4000244141</ele>
        <time>2018-05-16T11:28:57.000Z</time>
      </trkpt>
      <trkpt lat="44.36945" lon="5.98633">
        <ele>1029</ele>
        <time>2018-05-16T11:29:19.000Z</time>
      </trkpt>
      <trkpt lat="44.36936" lon="5.98622">
        <ele>1022.799987793</ele>
        <time>2018-05-16T11:29:41.000Z</time>
      </trkpt>
      <trkpt lat="44.36934" lon="5.98614">
        <ele>1020.4000244141</ele>
        <time>2018-05-16T11:29:57.000Z</time>
      </trkpt>
      <trkpt lat="44.36929" lon="5.98622">
        <ele>1019</ele>
        <time>2018-05-16T11:30:19.000Z</time>
      </trkpt>
      <trkpt lat="44.36921" lon="5.98617">
        <ele>1015</ele>
        <time>2018-05-16T11:30:48.000Z</time>
      </trkpt>
      <trkpt lat="44.36913" lon="5.98597">
        <ele>1009.5999755859</ele>
        <time>2018-05-16T11:31:13.000Z</time>
      </trkpt>
      <trkpt lat="44.36907" lon="5.98593">
        <ele>1007.200012207</ele>
        <time>2018-05-16T11:31:32.000Z</time>
      </trkpt>
      <trkpt lat="44.369" lon="5.98605">
        <ele>1005.4000244141</ele>
        <time>2018-05-16T11:31:52.000Z</time>
      </trkpt>
      <trkpt lat="44.36892" lon="5.98624">
        <ele>1003.4000244141</ele>
        <time>2018-05-16T11:32:16.000Z</time>
      </trkpt>
      <trkpt lat="44.36886" lon="5.98619">
        <ele>998</ele>
        <time>2018-05-16T11:32:40.000Z</time>
      </trkpt>
      <trkpt lat="44.36891" lon="5.98626">
        <ele>991.20001220703</ele>
        <time>2018-05-16T11:33:43.000Z</time>
      </trkpt>
      <trkpt lat="44.36885" lon="5.98616">
        <ele>988</ele>
        <time>2018-05-16T11:34:23.000Z</time>
      </trkpt>
      <trkpt lat="44.36877" lon="5.98601">
        <ele>986</ele>
        <time>2018-05-16T11:34:41.000Z</time>
      </trkpt>
      <trkpt lat="44.36873" lon="5.98585">
        <ele>981.59997558594</ele>
        <time>2018-05-16T11:34:57.000Z</time>
      </trkpt>
      <trkpt lat="44.36872" lon="5.9857">
        <ele>978.79998779297</ele>
        <time>2018-05-16T11:35:12.000Z</time>
      </trkpt>
      <trkpt lat="44.36865" lon="5.98566">
        <ele>976.40002441406</ele>
        <time>2018-05-16T11:35:29.000Z</time>
      </trkpt>
      <trkpt lat="44.36848" lon="5.9857">
        <ele>973.59997558594</ele>
        <time>2018-05-16T11:35:56.000Z</time>
      </trkpt>
      <trkpt lat="44.3684" lon="5.98563">
        <ele>971.59997558594</ele>
        <time>2018-05-16T11:36:11.000Z</time>
      </trkpt>
      <trkpt lat="44.36831" lon="5.98562">
        <ele>970</ele>
        <time>2018-05-16T11:36:27.000Z</time>
      </trkpt>
      <trkpt lat="44.36823" lon="5.98562">
        <ele>967.59997558594</ele>
        <time>2018-05-16T11:36:47.000Z</time>
      </trkpt>
      <trkpt lat="44.3682" lon="5.98556">
        <ele>964.59997558594</ele>
        <time>2018-05-16T11:37:10.000Z</time>
      </trkpt>
      <trkpt lat="44.36818" lon="5.9856">
        <ele>962.59997558594</ele>
        <time>2018-05-16T11:37:35.000Z</time>
      </trkpt>
      <trkpt lat="44.36818" lon="5.98557">
        <ele>959.20001220703</ele>
        <time>2018-05-16T11:38:22.000Z</time>
      </trkpt>
      <trkpt lat="44.3682" lon="5.98542">
        <ele>952</ele>
        <time>2018-05-16T11:38:38.000Z</time>
      </trkpt>
      <trkpt lat="44.36821" lon="5.98528">
        <ele>947.59997558594</ele>
        <time>2018-05-16T11:38:53.000Z</time>
      </trkpt>
      <trkpt lat="44.36819" lon="5.98521">
        <ele>945</ele>
        <time>2018-05-16T11:39:08.000Z</time>
      </trkpt>
      <trkpt lat="44.36815" lon="5.98518">
        <ele>943.79998779297</ele>
        <time>2018-05-16T11:39:15.000Z</time>
      </trkpt>
      <trkpt lat="44.36812" lon="5.98503">
        <ele>940.59997558594</ele>
        <time>2018-05-16T11:39:30.000Z</time>
      </trkpt>
      <trkpt lat="44.36811" lon="5.98501">
        <ele>940.20001220703</ele>
        <time>2018-05-16T11:39:32.000Z</time>
      </trkpt>
      <trkpt lat="44.36808" lon="5.98496">
        <ele>939.20001220703</ele>
        <time>2018-05-16T11:39:37.000Z</time>
      </trkpt>
      <trkpt lat="44.36803" lon="5.9849">
        <ele>937.40002441406</ele>
        <time>2018-05-16T11:39:45.000Z</time>
      </trkpt>
      <trkpt lat="44.36792" lon="5.98479">
        <ele>934</ele>
        <time>2018-05-16T11:40:02.000Z</time>
      </trkpt>
      <trkpt lat="44.36783" lon="5.98468">
        <ele>932</ele>
        <time>2018-05-16T11:40:18.000Z</time>
      </trkpt>
      <trkpt lat="44.36774" lon="5.98456">
        <ele>930</ele>
        <time>2018-05-16T11:40:33.000Z</time>
      </trkpt>
      <trkpt lat="44.36763" lon="5.98451">
        <ele>925</ele>
        <time>2018-05-16T11:40:49.000Z</time>
      </trkpt>
      <trkpt lat="44.36761" lon="5.9845">
        <ele>924.59997558594</ele>
        <time>2018-05-16T11:40:51.000Z</time>
      </trkpt>
      <trkpt lat="44.36748" lon="5.98451">
        <ele>921</ele>
        <time>2018-05-16T11:41:10.000Z</time>
      </trkpt>
      <trkpt lat="44.36735" lon="5.98451">
        <ele>919.20001220703</ele>
        <time>2018-05-16T11:41:29.000Z</time>
      </trkpt>
      <trkpt lat="44.36716" lon="5.98439">
        <ele>917.20001220703</ele>
        <time>2018-05-16T11:41:49.000Z</time>
      </trkpt>
      <trkpt lat="44.36716" lon="5.98436">
        <ele>916.79998779297</ele>
        <time>2018-05-16T11:41:54.000Z</time>
      </trkpt>
      <trkpt lat="44.36716" lon="5.98432">
        <ele>914</ele>
        <time>2018-05-16T11:42:21.000Z</time>
      </trkpt>
      <trkpt lat="44.36716" lon="5.98431">
        <ele>913.20001220703</ele>
        <time>2018-05-16T11:42:46.000Z</time>
      </trkpt>
      <trkpt lat="44.36718" lon="5.98423">
        <ele>912</ele>
        <time>2018-05-16T11:43:09.000Z</time>
      </trkpt>
      <trkpt lat="44.36715" lon="5.98414">
        <ele>910.59997558594</ele>
        <time>2018-05-16T11:43:25.000Z</time>
      </trkpt>
      <trkpt lat="44.36715" lon="5.98412">
        <ele>906.40002441406</ele>
        <time>2018-05-16T11:43:44.000Z</time>
      </trkpt>
      <trkpt lat="44.36712" lon="5.98417">
        <ele>903</ele>
        <time>2018-05-16T11:44:49.000Z</time>
      </trkpt>
      <trkpt lat="44.36715" lon="5.98403">
        <ele>900.79998779297</ele>
        <time>2018-05-16T11:45:23.000Z</time>
      </trkpt>
      <trkpt lat="44.36722" lon="5.98391">
        <ele>898.40002441406</ele>
        <time>2018-05-16T11:45:50.000Z</time>
      </trkpt>
      <trkpt lat="44.36729" lon="5.98379">
        <ele>893</ele>
        <time>2018-05-16T11:46:15.000Z</time>
      </trkpt>
      <trkpt lat="44.36734" lon="5.98373">
        <ele>890.59997558594</ele>
        <time>2018-05-16T11:46:34.000Z</time>
      </trkpt>
      <trkpt lat="44.36732" lon="5.98362">
        <ele>887</ele>
        <time>2018-05-16T11:46:51.000Z</time>
      </trkpt>
      <trkpt lat="44.3673" lon="5.98353">
        <ele>883.79998779297</ele>
        <time>2018-05-16T11:47:12.000Z</time>
      </trkpt>
      <trkpt lat="44.36725" lon="5.98353">
        <ele>883.20001220703</ele>
        <time>2018-05-16T11:47:31.000Z</time>
      </trkpt>
      <trkpt lat="44.36722" lon="5.98344">
        <ele>881.40002441406</ele>
        <time>2018-05-16T11:47:56.000Z</time>
      </trkpt>
      <trkpt lat="44.36723" lon="5.98339">
        <ele>881.59997558594</ele>
        <time>2018-05-16T11:48:23.000Z</time>
      </trkpt>
      <trkpt lat="44.36728" lon="5.98334">
        <ele>879.79998779297</ele>
        <time>2018-05-16T11:48:43.000Z</time>
      </trkpt>
      <trkpt lat="44.36728" lon="5.98328">
        <ele>875.79998779297</ele>
        <time>2018-05-16T11:49:31.000Z</time>
      </trkpt>
      <trkpt lat="44.36728" lon="5.98316">
        <ele>875</ele>
        <time>2018-05-16T11:49:46.000Z</time>
      </trkpt>
      <trkpt lat="44.3673" lon="5.98299">
        <ele>874.20001220703</ele>
        <time>2018-05-16T11:50:07.000Z</time>
      </trkpt>
      <trkpt lat="44.36738" lon="5.98294">
        <ele>871.79998779297</ele>
        <time>2018-05-16T11:50:27.000Z</time>
      </trkpt>
      <trkpt lat="44.36746" lon="5.98294">
        <ele>870</ele>
        <time>2018-05-16T11:50:45.000Z</time>
      </trkpt>
      <trkpt lat="44.36753" lon="5.98276">
        <ele>868</ele>
        <time>2018-05-16T11:51:09.000Z</time>
      </trkpt>
      <trkpt lat="44.36758" lon="5.98276">
        <ele>869.20001220703</ele>
        <time>2018-05-16T11:51:32.000Z</time>
      </trkpt>
      <trkpt lat="44.36761" lon="5.98272">
        <ele>870</ele>
        <time>2018-05-16T11:51:57.000Z</time>
      </trkpt>
      <trkpt lat="44.36759" lon="5.98268">
        <ele>873.59997558594</ele>
        <time>2018-05-16T11:52:36.000Z</time>
      </trkpt>
      <trkpt lat="44.36772" lon="5.98267">
        <ele>874.40002441406</ele>
        <time>2018-05-16T11:53:05.000Z</time>
      </trkpt>
      <trkpt lat="44.3678" lon="5.98257">
        <ele>873.59997558594</ele>
        <time>2018-05-16T11:53:28.000Z</time>
      </trkpt>
      <trkpt lat="44.36791" lon="5.98245">
        <ele>873.40002441406</ele>
        <time>2018-05-16T11:53:54.000Z</time>
      </trkpt>
      <trkpt lat="44.36795" lon="5.98238">
        <ele>874.20001220703</ele>
        <time>2018-05-16T11:54:22.000Z</time>
      </trkpt>
      <trkpt lat="44.36798" lon="5.98242">
        <ele>874.79998779297</ele>
        <time>2018-05-16T11:54:39.000Z</time>
      </trkpt>
      <trkpt lat="44.36799" lon="5.9824">
        <ele>874.59997558594</ele>
        <time>2018-05-16T11:55:00.000Z</time>
      </trkpt>
      <trkpt lat="44.36798" lon="5.98233">
        <ele>874.59997558594</ele>
        <time>2018-05-16T11:55:06.000Z</time>
      </trkpt>
      <trkpt lat="44.36798" lon="5.98217">
        <ele>874.59997558594</ele>
        <time>2018-05-16T11:55:20.000Z</time>
      </trkpt>
      <trkpt lat="44.36811" lon="5.98211">
        <ele>875.40002441406</ele>
        <time>2018-05-16T11:55:53.000Z</time>
      </trkpt>
      <trkpt lat="44.36812" lon="5.98211">
        <ele>875.40002441406</ele>
        <time>2018-05-16T11:55:54.000Z</time>
      </trkpt>
      <trkpt lat="44.36816" lon="5.98207">
        <ele>873.79998779297</ele>
        <time>2018-05-16T11:56:10.000Z</time>
      </trkpt>
      <trkpt lat="44.36814" lon="5.98196">
        <ele>872.59997558594</ele>
        <time>2018-05-16T11:56:26.000Z</time>
      </trkpt>
      <trkpt lat="44.36816" lon="5.98184">
        <ele>870.40002441406</ele>
        <time>2018-05-16T11:56:43.000Z</time>
      </trkpt>
      <trkpt lat="44.36821" lon="5.98196">
        <ele>867.79998779297</ele>
        <time>2018-05-16T11:56:58.000Z</time>
      </trkpt>
      <trkpt lat="44.3683" lon="5.98193">
        <ele>865.40002441406</ele>
        <time>2018-05-16T11:57:18.000Z</time>
      </trkpt>
      <trkpt lat="44.36834" lon="5.98171">
        <ele>866.20001220703</ele>
        <time>2018-05-16T11:57:39.000Z</time>
      </trkpt>
      <trkpt lat="44.36832" lon="5.98164">
        <ele>867</ele>
        <time>2018-05-16T11:58:08.000Z</time>
      </trkpt>
      <trkpt lat="44.36834" lon="5.98159">
        <ele>867.20001220703</ele>
        <time>2018-05-16T11:58:13.000Z</time>
      </trkpt>
      <trkpt lat="44.3684" lon="5.98145">
        <ele>870.79998779297</ele>
        <time>2018-05-16T11:58:29.000Z</time>
      </trkpt>
      <trkpt lat="44.36849" lon="5.9814">
        <ele>871.59997558594</ele>
        <time>2018-05-16T11:58:44.000Z</time>
      </trkpt>
      <trkpt lat="44.36867" lon="5.98139">
        <ele>870.20001220703</ele>
        <time>2018-05-16T11:59:05.000Z</time>
      </trkpt>
      <trkpt lat="44.36877" lon="5.98132">
        <ele>870.20001220703</ele>
        <time>2018-05-16T11:59:28.000Z</time>
      </trkpt>
      <trkpt lat="44.36881" lon="5.98125">
        <ele>870.20001220703</ele>
        <time>2018-05-16T11:59:35.000Z</time>
      </trkpt>
      <trkpt lat="44.36888" lon="5.9811">
        <ele>870.59997558594</ele>
        <time>2018-05-16T11:59:47.000Z</time>
      </trkpt>
      <trkpt lat="44.36896" lon="5.98094">
        <ele>870.79998779297</ele>
        <time>2018-05-16T12:00:00.000Z</time>
      </trkpt>
      <trkpt lat="44.36898" lon="5.98089">
        <ele>871.20001220703</ele>
        <time>2018-05-16T12:00:03.000Z</time>
      </trkpt>
      <trkpt lat="44.369" lon="5.9808">
        <ele>872.20001220703</ele>
        <time>2018-05-16T12:00:10.000Z</time>
      </trkpt>
      <trkpt lat="44.36908" lon="5.9807">
        <ele>870.59997558594</ele>
        <time>2018-05-16T12:00:25.000Z</time>
      </trkpt>
      <trkpt lat="44.36915" lon="5.98074">
        <ele>868.40002441406</ele>
        <time>2018-05-16T12:00:42.000Z</time>
      </trkpt>
      <trkpt lat="44.36922" lon="5.98085">
        <ele>865.59997558594</ele>
        <time>2018-05-16T12:00:58.000Z</time>
      </trkpt>
      <trkpt lat="44.36923" lon="5.98079">
        <ele>862.79998779297</ele>
        <time>2018-05-16T12:01:14.000Z</time>
      </trkpt>
      <trkpt lat="44.36931" lon="5.98065">
        <ele>861.40002441406</ele>
        <time>2018-05-16T12:01:39.000Z</time>
      </trkpt>
      <trkpt lat="44.36937" lon="5.98054">
        <ele>861.59997558594</ele>
        <time>2018-05-16T12:01:54.000Z</time>
      </trkpt>
      <trkpt lat="44.36941" lon="5.98039">
        <ele>862.40002441406</ele>
        <time>2018-05-16T12:02:21.000Z</time>
      </trkpt>
      <trkpt lat="44.36943" lon="5.98027">
        <ele>862.59997558594</ele>
        <time>2018-05-16T12:02:34.000Z</time>
      </trkpt>
      <trkpt lat="44.36943" lon="5.98021">
        <ele>864.79998779297</ele>
        <time>2018-05-16T12:02:45.000Z</time>
      </trkpt>
      <trkpt lat="44.36949" lon="5.97997">
        <ele>865.40002441406</ele>
        <time>2018-05-16T12:03:03.000Z</time>
      </trkpt>
      <trkpt lat="44.36954" lon="5.9798">
        <ele>866.59997558594</ele>
        <time>2018-05-16T12:03:19.000Z</time>
      </trkpt>
      <trkpt lat="44.36959" lon="5.97971">
        <ele>865.40002441406</ele>
        <time>2018-05-16T12:03:34.000Z</time>
      </trkpt>
      <trkpt lat="44.36968" lon="5.97957">
        <ele>862</ele>
        <time>2018-05-16T12:03:53.000Z</time>
      </trkpt>
      <trkpt lat="44.36981" lon="5.97955">
        <ele>857.79998779297</ele>
        <time>2018-05-16T12:04:16.000Z</time>
      </trkpt>
      <trkpt lat="44.36987" lon="5.97944">
        <ele>854.40002441406</ele>
        <time>2018-05-16T12:04:33.000Z</time>
      </trkpt>
      <trkpt lat="44.36984" lon="5.97928">
        <ele>853</ele>
        <time>2018-05-16T12:04:50.000Z</time>
      </trkpt>
      <trkpt lat="44.36982" lon="5.97917">
        <ele>853.40002441406</ele>
        <time>2018-05-16T12:05:13.000Z</time>
      </trkpt>
      <trkpt lat="44.36988" lon="5.97906">
        <ele>854</ele>
        <time>2018-05-16T12:05:34.000Z</time>
      </trkpt>
      <trkpt lat="44.36994" lon="5.97889">
        <ele>855.79998779297</ele>
        <time>2018-05-16T12:05:58.000Z</time>
      </trkpt>
      <trkpt lat="44.36993" lon="5.97881">
        <ele>858</ele>
        <time>2018-05-16T12:06:17.000Z</time>
      </trkpt>
      <trkpt lat="44.36992" lon="5.9788">
        <ele>859</ele>
        <time>2018-05-16T12:06:43.000Z</time>
      </trkpt>
      <trkpt lat="44.36994" lon="5.97882">
        <ele>859.20001220703</ele>
        <time>2018-05-16T12:07:34.000Z</time>
      </trkpt>
      <trkpt lat="44.36994" lon="5.97885">
        <ele>858.40002441406</ele>
        <time>2018-05-16T12:07:51.000Z</time>
      </trkpt>
      <trkpt lat="44.36992" lon="5.97869">
        <ele>858</ele>
        <time>2018-05-16T12:08:03.000Z</time>
      </trkpt>
      <trkpt lat="44.36989" lon="5.97858">
        <ele>858.59997558594</ele>
        <time>2018-05-16T12:08:20.000Z</time>
      </trkpt>
      <trkpt lat="44.36982" lon="5.97843">
        <ele>858.59997558594</ele>
        <time>2018-05-16T12:08:36.000Z</time>
      </trkpt>
      <trkpt lat="44.36978" lon="5.97831">
        <ele>858.20001220703</ele>
        <time>2018-05-16T12:08:51.000Z</time>
      </trkpt>
      <trkpt lat="44.36975" lon="5.97814">
        <ele>858.20001220703</ele>
        <time>2018-05-16T12:09:06.000Z</time>
      </trkpt>
      <trkpt lat="44.36972" lon="5.97797">
        <ele>857</ele>
        <time>2018-05-16T12:09:26.000Z</time>
      </trkpt>
      <trkpt lat="44.36962" lon="5.97781">
        <ele>853.79998779297</ele>
        <time>2018-05-16T12:09:45.000Z</time>
      </trkpt>
      <trkpt lat="44.36961" lon="5.9777">
        <ele>851</ele>
        <time>2018-05-16T12:10:02.000Z</time>
      </trkpt>
      <trkpt lat="44.36962" lon="5.9777">
        <ele>848.79998779297</ele>
        <time>2018-05-16T12:10:20.000Z</time>
      </trkpt>
      <trkpt lat="44.36968" lon="5.97767">
        <ele>847.20001220703</ele>
        <time>2018-05-16T12:10:37.000Z</time>
      </trkpt>
      <trkpt lat="44.36973" lon="5.97752">
        <ele>843.79998779297</ele>
        <time>2018-05-16T12:10:51.000Z</time>
      </trkpt>
      <trkpt lat="44.36976" lon="5.97741">
        <ele>843.20001220703</ele>
        <time>2018-05-16T12:11:02.000Z</time>
      </trkpt>
      <trkpt lat="44.36976" lon="5.97737">
        <ele>842.79998779297</ele>
        <time>2018-05-16T12:11:05.000Z</time>
      </trkpt>
      <trkpt lat="44.36983" lon="5.97724">
        <ele>841.20001220703</ele>
        <time>2018-05-16T12:11:19.000Z</time>
      </trkpt>
      <trkpt lat="44.36986" lon="5.97706">
        <ele>840</ele>
        <time>2018-05-16T12:11:36.000Z</time>
      </trkpt>
      <trkpt lat="44.36989" lon="5.9769">
        <ele>839.20001220703</ele>
        <time>2018-05-16T12:11:51.000Z</time>
      </trkpt>
      <trkpt lat="44.36989" lon="5.9768">
        <ele>838.40002441406</ele>
        <time>2018-05-16T12:12:06.000Z</time>
      </trkpt>
      <trkpt lat="44.36987" lon="5.97673">
        <ele>837.40002441406</ele>
        <time>2018-05-16T12:12:20.000Z</time>
      </trkpt>
      <trkpt lat="44.36995" lon="5.97662">
        <ele>834</ele>
        <time>2018-05-16T12:12:33.000Z</time>
      </trkpt>
      <trkpt lat="44.37" lon="5.97652">
        <ele>833.20001220703</ele>
        <time>2018-05-16T12:12:47.000Z</time>
      </trkpt>
      <trkpt lat="44.3699" lon="5.97627">
        <ele>830.79998779297</ele>
        <time>2018-05-16T12:13:06.000Z</time>
      </trkpt>
      <trkpt lat="44.36981" lon="5.97601">
        <ele>829.59997558594</ele>
        <time>2018-05-16T12:13:26.000Z</time>
      </trkpt>
      <trkpt lat="44.36978" lon="5.97597">
        <ele>829.40002441406</ele>
        <time>2018-05-16T12:13:30.000Z</time>
      </trkpt>
      <trkpt lat="44.3697" lon="5.97576">
        <ele>828.79998779297</ele>
        <time>2018-05-16T12:13:47.000Z</time>
      </trkpt>
      <trkpt lat="44.36962" lon="5.97567">
        <ele>827</ele>
        <time>2018-05-16T12:14:01.000Z</time>
      </trkpt>
      <trkpt lat="44.36953" lon="5.97566">
        <ele>826.20001220703</ele>
        <time>2018-05-16T12:14:21.000Z</time>
      </trkpt>
      <trkpt lat="44.36942" lon="5.97562">
        <ele>823.79998779297</ele>
        <time>2018-05-16T12:14:35.000Z</time>
      </trkpt>
      <trkpt lat="44.36933" lon="5.97556">
        <ele>821.79998779297</ele>
        <time>2018-05-16T12:14:50.000Z</time>
      </trkpt>
      <trkpt lat="44.36923" lon="5.97539">
        <ele>820.20001220703</ele>
        <time>2018-05-16T12:15:07.000Z</time>
      </trkpt>
      <trkpt lat="44.36924" lon="5.97535">
        <ele>818</ele>
        <time>2018-05-16T12:15:15.000Z</time>
      </trkpt>
      <trkpt lat="44.36924" lon="5.97529">
        <ele>817</ele>
        <time>2018-05-16T12:15:19.000Z</time>
      </trkpt>
      <trkpt lat="44.36923" lon="5.975">
        <ele>811.79998779297</ele>
        <time>2018-05-16T12:15:39.000Z</time>
      </trkpt>
      <trkpt lat="44.3692" lon="5.97489">
        <ele>811</ele>
        <time>2018-05-16T12:15:47.000Z</time>
      </trkpt>
      <trkpt lat="44.36915" lon="5.97484">
        <ele>810.79998779297</ele>
        <time>2018-05-16T12:15:53.000Z</time>
      </trkpt>
      <trkpt lat="44.36911" lon="5.97481">
        <ele>810.20001220703</ele>
        <time>2018-05-16T12:16:08.000Z</time>
      </trkpt>
      <trkpt lat="44.36911" lon="5.97483">
        <ele>807.20001220703</ele>
        <time>2018-05-16T12:16:36.000Z</time>
      </trkpt>
      <trkpt lat="44.36913" lon="5.97484">
        <ele>805.40002441406</ele>
        <time>2018-05-16T12:17:06.000Z</time>
      </trkpt>
      <trkpt lat="44.36917" lon="5.9748">
        <ele>802.20001220703</ele>
        <time>2018-05-16T12:17:44.000Z</time>
      </trkpt>
      <trkpt lat="44.36924" lon="5.97475">
        <ele>800.79998779297</ele>
        <time>2018-05-16T12:17:58.000Z</time>
      </trkpt>
      <trkpt lat="44.36917" lon="5.97482">
        <ele>801</ele>
        <time>2018-05-16T12:18:15.000Z</time>
      </trkpt>
      <trkpt lat="44.3691" lon="5.97491">
        <ele>800.79998779297</ele>
        <time>2018-05-16T12:18:26.000Z</time>
      </trkpt>
      <trkpt lat="44.36907" lon="5.97497">
        <ele>800.40002441406</ele>
        <time>2018-05-16T12:18:31.000Z</time>
      </trkpt>
      <trkpt lat="44.36898" lon="5.97512">
        <ele>797.59997558594</ele>
        <time>2018-05-16T12:18:43.000Z</time>
      </trkpt>
      <trkpt lat="44.36891" lon="5.97536">
        <ele>796.20001220703</ele>
        <time>2018-05-16T12:18:58.000Z</time>
      </trkpt>
      <trkpt lat="44.36877" lon="5.97543">
        <ele>794.40002441406</ele>
        <time>2018-05-16T12:19:15.000Z</time>
      </trkpt>
      <trkpt lat="44.36873" lon="5.9754">
        <ele>793.79998779297</ele>
        <time>2018-05-16T12:19:19.000Z</time>
      </trkpt>
      <trkpt lat="44.3687" lon="5.9751">
        <ele>793.59997558594</ele>
        <time>2018-05-16T12:19:35.000Z</time>
      </trkpt>
      <trkpt lat="44.36871" lon="5.97507">
        <ele>793</ele>
        <time>2018-05-16T12:19:37.000Z</time>
      </trkpt>
      <trkpt lat="44.36876" lon="5.97487">
        <ele>793</ele>
        <time>2018-05-16T12:19:57.000Z</time>
      </trkpt>
      <trkpt lat="44.36877" lon="5.97476">
        <ele>793.20001220703</ele>
        <time>2018-05-16T12:20:04.000Z</time>
      </trkpt>
      <trkpt lat="44.36866" lon="5.97449">
        <ele>794.20001220703</ele>
        <time>2018-05-16T12:20:22.000Z</time>
      </trkpt>
      <trkpt lat="44.36851" lon="5.97439">
        <ele>794.40002441406</ele>
        <time>2018-05-16T12:20:37.000Z</time>
      </trkpt>
      <trkpt lat="44.36834" lon="5.97424">
        <ele>796.40002441406</ele>
        <time>2018-05-16T12:20:56.000Z</time>
      </trkpt>
      <trkpt lat="44.36818" lon="5.97418">
        <ele>795.40002441406</ele>
        <time>2018-05-16T12:21:11.000Z</time>
      </trkpt>
      <trkpt lat="44.36802" lon="5.9741">
        <ele>794.79998779297</ele>
        <time>2018-05-16T12:21:26.000Z</time>
      </trkpt>
      <trkpt lat="44.36787" lon="5.97397">
        <ele>794.40002441406</ele>
        <time>2018-05-16T12:21:43.000Z</time>
      </trkpt>
      <trkpt lat="44.36774" lon="5.97384">
        <ele>793</ele>
        <time>2018-05-16T12:21:58.000Z</time>
      </trkpt>
      <trkpt lat="44.36771" lon="5.97381">
        <ele>792.79998779297</ele>
        <time>2018-05-16T12:22:01.000Z</time>
      </trkpt>
      <trkpt lat="44.36764" lon="5.97372">
        <ele>791.79998779297</ele>
        <time>2018-05-16T12:22:16.000Z</time>
      </trkpt>
      <trkpt lat="44.36751" lon="5.97361">
        <ele>792</ele>
        <time>2018-05-16T12:22:31.000Z</time>
      </trkpt>
      <trkpt lat="44.36731" lon="5.9735">
        <ele>792.40002441406</ele>
        <time>2018-05-16T12:22:51.000Z</time>
      </trkpt>
      <trkpt lat="44.36716" lon="5.97344">
        <ele>792.59997558594</ele>
        <time>2018-05-16T12:23:06.000Z</time>
      </trkpt>
      <trkpt lat="44.36703" lon="5.97339">
        <ele>792.79998779297</ele>
        <time>2018-05-16T12:23:18.000Z</time>
      </trkpt>
      <trkpt lat="44.36692" lon="5.9733">
        <ele>793.40002441406</ele>
        <time>2018-05-16T12:23:32.000Z</time>
      </trkpt>
      <trkpt lat="44.36686" lon="5.97303">
        <ele>792.59997558594</ele>
        <time>2018-05-16T12:23:50.000Z</time>
      </trkpt>
      <trkpt lat="44.36681" lon="5.97271">
        <ele>789.40002441406</ele>
        <time>2018-05-16T12:24:11.000Z</time>
      </trkpt>
      <trkpt lat="44.36675" lon="5.97238">
        <ele>789.59997558594</ele>
        <time>2018-05-16T12:24:31.000Z</time>
      </trkpt>
      <trkpt lat="44.36671" lon="5.97209">
        <ele>789</ele>
        <time>2018-05-16T12:24:49.000Z</time>
      </trkpt>
      <trkpt lat="44.36665" lon="5.97183">
        <ele>788.20001220703</ele>
        <time>2018-05-16T12:25:06.000Z</time>
      </trkpt>
      <trkpt lat="44.36664" lon="5.97181">
        <ele>788.40002441406</ele>
        <time>2018-05-16T12:25:08.000Z</time>
      </trkpt>
      <trkpt lat="44.36659" lon="5.9715">
        <ele>788.20001220703</ele>
        <time>2018-05-16T12:25:29.000Z</time>
      </trkpt>
      <trkpt lat="44.36654" lon="5.97122">
        <ele>788.59997558594</ele>
        <time>2018-05-16T12:25:46.000Z</time>
      </trkpt>
      <trkpt lat="44.36651" lon="5.9711">
        <ele>788.20001220703</ele>
        <time>2018-05-16T12:25:54.000Z</time>
      </trkpt>
      <trkpt lat="44.36647" lon="5.97088">
        <ele>788</ele>
        <time>2018-05-16T12:26:09.000Z</time>
      </trkpt>
      <trkpt lat="44.36648" lon="5.97068">
        <ele>788.40002441406</ele>
        <time>2018-05-16T12:26:27.000Z</time>
      </trkpt>
      <trkpt lat="44.3665" lon="5.97064">
        <ele>785.79998779297</ele>
        <time>2018-05-16T12:26:40.000Z</time>
      </trkpt>
      <trkpt lat="44.36651" lon="5.97062">
        <ele>785.20001220703</ele>
        <time>2018-05-16T12:26:42.000Z</time>
      </trkpt>
      <trkpt lat="44.36658" lon="5.9705">
        <ele>783.40002441406</ele>
        <time>2018-05-16T12:26:52.000Z</time>
      </trkpt>
      <trkpt lat="44.36662" lon="5.97046">
        <ele>782</ele>
        <time>2018-05-16T12:26:57.000Z</time>
      </trkpt>
      <trkpt lat="44.36667" lon="5.97044">
        <ele>780.59997558594</ele>
        <time>2018-05-16T12:27:04.000Z</time>
      </trkpt>
      <trkpt lat="44.36671" lon="5.97039">
        <ele>779.79998779297</ele>
        <time>2018-05-16T12:27:09.000Z</time>
      </trkpt>
      <trkpt lat="44.36673" lon="5.97036">
        <ele>779.59997558594</ele>
        <time>2018-05-16T12:27:12.000Z</time>
      </trkpt>
      <trkpt lat="44.3668" lon="5.97023">
        <ele>778.20001220703</ele>
        <time>2018-05-16T12:27:23.000Z</time>
      </trkpt>
      <trkpt lat="44.36687" lon="5.9701">
        <ele>776.40002441406</ele>
        <time>2018-05-16T12:27:34.000Z</time>
      </trkpt>
      <trkpt lat="44.36688" lon="5.96996">
        <ele>775.59997558594</ele>
        <time>2018-05-16T12:27:46.000Z</time>
      </trkpt>
      <trkpt lat="44.36689" lon="5.96993">
        <ele>775.59997558594</ele>
        <time>2018-05-16T12:27:48.000Z</time>
      </trkpt>
      <trkpt lat="44.36695" lon="5.9697">
        <ele>773.79998779297</ele>
        <time>2018-05-16T12:28:06.000Z</time>
      </trkpt>
      <trkpt lat="44.36693" lon="5.96948">
        <ele>772.59997558594</ele>
        <time>2018-05-16T12:28:22.000Z</time>
      </trkpt>
      <trkpt lat="44.3669" lon="5.96923">
        <ele>772</ele>
        <time>2018-05-16T12:28:40.000Z</time>
      </trkpt>
      <trkpt lat="44.36693" lon="5.96891">
        <ele>771.79998779297</ele>
        <time>2018-05-16T12:29:06.000Z</time>
      </trkpt>
      <trkpt lat="44.36696" lon="5.96883">
        <ele>771.79998779297</ele>
        <time>2018-05-16T12:29:26.000Z</time>
      </trkpt>
      <trkpt lat="44.36696" lon="5.96878">
        <ele>772.59997558594</ele>
        <time>2018-05-16T12:29:47.000Z</time>
      </trkpt>
      <trkpt lat="44.36692" lon="5.96862">
        <ele>774.40002441406</ele>
        <time>2018-05-16T12:30:11.000Z</time>
      </trkpt>
      <trkpt lat="44.36696" lon="5.9685">
        <ele>775.59997558594</ele>
        <time>2018-05-16T12:30:27.000Z</time>
      </trkpt>
      <trkpt lat="44.36693" lon="5.96849">
        <ele>776.20001220703</ele>
        <time>2018-05-16T12:30:46.000Z</time>
      </trkpt>
      <trkpt lat="44.36697" lon="5.9686">
        <ele>775</ele>
        <time>2018-05-16T12:31:07.000Z</time>
      </trkpt>
      <trkpt lat="44.36705" lon="5.96855">
        <ele>773.59997558594</ele>
        <time>2018-05-16T12:31:34.000Z</time>
      </trkpt>
      <trkpt lat="44.36707" lon="5.9684">
        <ele>772.20001220703</ele>
        <time>2018-05-16T12:31:53.000Z</time>
      </trkpt>
      <trkpt lat="44.36711" lon="5.96847">
        <ele>770.40002441406</ele>
        <time>2018-05-16T12:32:09.000Z</time>
      </trkpt>
      <trkpt lat="44.36721" lon="5.96846">
        <ele>768.40002441406</ele>
        <time>2018-05-16T12:32:31.000Z</time>
      </trkpt>
      <trkpt lat="44.36713" lon="5.96846">
        <ele>768.79998779297</ele>
        <time>2018-05-16T12:32:49.000Z</time>
      </trkpt>
      <trkpt lat="44.36701" lon="5.96861">
        <ele>768.79998779297</ele>
        <time>2018-05-16T12:33:14.000Z</time>
      </trkpt>
      <trkpt lat="44.36695" lon="5.96871">
        <ele>771.40002441406</ele>
        <time>2018-05-16T12:33:40.000Z</time>
      </trkpt>
      <trkpt lat="44.36689" lon="5.96871">
        <ele>785.20001220703</ele>
        <time>2018-05-16T12:34:09.000Z</time>
      </trkpt>
      <trkpt lat="44.36687" lon="5.96868">
        <ele>784.79998779297</ele>
        <time>2018-05-16T12:34:33.000Z</time>
      </trkpt>
      <trkpt lat="44.36688" lon="5.96881">
        <ele>778.40002441406</ele>
        <time>2018-05-16T12:34:55.000Z</time>
      </trkpt>
      <trkpt lat="44.36692" lon="5.96885">
        <ele>774</ele>
        <time>2018-05-16T12:35:44.000Z</time>
      </trkpt>
      <trkpt lat="44.36689" lon="5.96897">
        <ele>770.79998779297</ele>
        <time>2018-05-16T12:36:12.000Z</time>
      </trkpt>
      <trkpt lat="44.36689" lon="5.96899">
        <ele>770.59997558594</ele>
        <time>2018-05-16T12:36:13.000Z</time>
      </trkpt>
      <trkpt lat="44.36685" lon="5.9692">
        <ele>768</ele>
        <time>2018-05-16T12:36:31.000Z</time>
      </trkpt>
      <trkpt lat="44.3669" lon="5.96939">
        <ele>764.40002441406</ele>
        <time>2018-05-16T12:36:47.000Z</time>
      </trkpt>
      <trkpt lat="44.36692" lon="5.96966">
        <ele>762</ele>
        <time>2018-05-16T12:37:05.000Z</time>
      </trkpt>
      <trkpt lat="44.36697" lon="5.96986">
        <ele>762</ele>
        <time>2018-05-16T12:37:25.000Z</time>
      </trkpt>
      <trkpt lat="44.36701" lon="5.96996">
        <ele>763.20001220703</ele>
        <time>2018-05-16T12:37:41.000Z</time>
      </trkpt>
      <trkpt lat="44.36709" lon="5.97018">
        <ele>761.20001220703</ele>
        <time>2018-05-16T12:37:59.000Z</time>
      </trkpt>
      <trkpt lat="44.36716" lon="5.97024">
        <ele>760.20001220703</ele>
        <time>2018-05-16T12:38:08.000Z</time>
      </trkpt>
      <trkpt lat="44.36725" lon="5.97026">
        <ele>760.20001220703</ele>
        <time>2018-05-16T12:38:15.000Z</time>
      </trkpt>
      <trkpt lat="44.36731" lon="5.97022">
        <ele>759.79998779297</ele>
        <time>2018-05-16T12:38:21.000Z</time>
      </trkpt>
      <trkpt lat="44.36741" lon="5.9701">
        <ele>758.79998779297</ele>
        <time>2018-05-16T12:38:34.000Z</time>
      </trkpt>
      <trkpt lat="44.36745" lon="5.9701">
        <ele>758</ele>
        <time>2018-05-16T12:38:38.000Z</time>
      </trkpt>
      <trkpt lat="44.3675" lon="5.97008">
        <ele>758.79998779297</ele>
        <time>2018-05-16T12:38:49.000Z</time>
      </trkpt>
      <trkpt lat="44.36752" lon="5.96999">
        <ele>758</ele>
        <time>2018-05-16T12:38:55.000Z</time>
      </trkpt>
      <trkpt lat="44.36749" lon="5.96972">
        <ele>755.79998779297</ele>
        <time>2018-05-16T12:39:11.000Z</time>
      </trkpt>
      <trkpt lat="44.36749" lon="5.96953">
        <ele>753.79998779297</ele>
        <time>2018-05-16T12:39:27.000Z</time>
      </trkpt>
      <trkpt lat="44.36748" lon="5.96956">
        <ele>752.79998779297</ele>
        <time>2018-05-16T12:40:10.000Z</time>
      </trkpt>
      <trkpt lat="44.36746" lon="5.96938">
        <ele>752.59997558594</ele>
        <time>2018-05-16T12:40:31.000Z</time>
      </trkpt>
      <trkpt lat="44.36746" lon="5.96929">
        <ele>752.59997558594</ele>
        <time>2018-05-16T12:40:37.000Z</time>
      </trkpt>
      <trkpt lat="44.36741" lon="5.96909">
        <ele>750.20001220703</ele>
        <time>2018-05-16T12:40:52.000Z</time>
      </trkpt>
      <trkpt lat="44.3674" lon="5.96891">
        <ele>746.59997558594</ele>
        <time>2018-05-16T12:41:07.000Z</time>
      </trkpt>
      <trkpt lat="44.36747" lon="5.96861">
        <ele>743.59997558594</ele>
        <time>2018-05-16T12:41:26.000Z</time>
      </trkpt>
      <trkpt lat="44.36755" lon="5.96848">
        <ele>740.59997558594</ele>
        <time>2018-05-16T12:41:39.000Z</time>
      </trkpt>
      <trkpt lat="44.36756" lon="5.96844">
        <ele>740.20001220703</ele>
        <time>2018-05-16T12:41:42.000Z</time>
      </trkpt>
      <trkpt lat="44.36756" lon="5.96817">
        <ele>735.20001220703</ele>
        <time>2018-05-16T12:42:00.000Z</time>
      </trkpt>
      <trkpt lat="44.36755" lon="5.96797">
        <ele>732.59997558594</ele>
        <time>2018-05-16T12:42:15.000Z</time>
      </trkpt>
      <trkpt lat="44.36753" lon="5.96772">
        <ele>731.20001220703</ele>
        <time>2018-05-16T12:42:32.000Z</time>
      </trkpt>
      <trkpt lat="44.36752" lon="5.96746">
        <ele>730</ele>
        <time>2018-05-16T12:42:49.000Z</time>
      </trkpt>
      <trkpt lat="44.36749" lon="5.96722">
        <ele>728.20001220703</ele>
        <time>2018-05-16T12:43:08.000Z</time>
      </trkpt>
      <trkpt lat="44.36746" lon="5.967">
        <ele>728.20001220703</ele>
        <time>2018-05-16T12:43:24.000Z</time>
      </trkpt>
      <trkpt lat="44.36749" lon="5.96672">
        <ele>728.20001220703</ele>
        <time>2018-05-16T12:43:44.000Z</time>
      </trkpt>
      <trkpt lat="44.36749" lon="5.96649">
        <ele>729.40002441406</ele>
        <time>2018-05-16T12:44:01.000Z</time>
      </trkpt>
      <trkpt lat="44.36753" lon="5.96622">
        <ele>731.20001220703</ele>
        <time>2018-05-16T12:44:19.000Z</time>
      </trkpt>
      <trkpt lat="44.36753" lon="5.96603">
        <ele>730</ele>
        <time>2018-05-16T12:44:32.000Z</time>
      </trkpt>
      <trkpt lat="44.36752" lon="5.96594">
        <ele>730</ele>
        <time>2018-05-16T12:44:42.000Z</time>
      </trkpt>
      <trkpt lat="44.36763" lon="5.96564">
        <ele>729.20001220703</ele>
        <time>2018-05-16T12:45:04.000Z</time>
      </trkpt>
      <trkpt lat="44.36762" lon="5.96556">
        <ele>730.59997558594</ele>
        <time>2018-05-16T12:45:30.000Z</time>
      </trkpt>
      <trkpt lat="44.36764" lon="5.96557">
        <ele>734</ele>
        <time>2018-05-16T12:46:17.000Z</time>
      </trkpt>
      <trkpt lat="44.36761" lon="5.96543">
        <ele>730.79998779297</ele>
        <time>2018-05-16T12:46:33.000Z</time>
      </trkpt>
      <trkpt lat="44.3676" lon="5.96521">
        <ele>726.40002441406</ele>
        <time>2018-05-16T12:46:50.000Z</time>
      </trkpt>
      <trkpt lat="44.3676" lon="5.9652">
        <ele>726.40002441406</ele>
        <time>2018-05-16T12:46:51.000Z</time>
      </trkpt>
      <trkpt lat="44.36755" lon="5.96497">
        <ele>723.79998779297</ele>
        <time>2018-05-16T12:47:07.000Z</time>
      </trkpt>
      <trkpt lat="44.3675" lon="5.96477">
        <ele>720.79998779297</ele>
        <time>2018-05-16T12:47:23.000Z</time>
      </trkpt>
      <trkpt lat="44.36746" lon="5.96459">
        <ele>718.79998779297</ele>
        <time>2018-05-16T12:47:40.000Z</time>
      </trkpt>
      <trkpt lat="44.36752" lon="5.96443">
        <ele>717.20001220703</ele>
        <time>2018-05-16T12:47:56.000Z</time>
      </trkpt>
      <trkpt lat="44.36751" lon="5.96423">
        <ele>715.59997558594</ele>
        <time>2018-05-16T12:48:14.000Z</time>
      </trkpt>
      <trkpt lat="44.36745" lon="5.96405">
        <ele>713.59997558594</ele>
        <time>2018-05-16T12:48:30.000Z</time>
      </trkpt>
      <trkpt lat="44.36747" lon="5.96383">
        <ele>711.40002441406</ele>
        <time>2018-05-16T12:48:48.000Z</time>
      </trkpt>
      <trkpt lat="44.36747" lon="5.9638">
        <ele>711.40002441406</ele>
        <time>2018-05-16T12:48:51.000Z</time>
      </trkpt>
      <trkpt lat="44.3675" lon="5.96366">
        <ele>711.40002441406</ele>
        <time>2018-05-16T12:49:01.000Z</time>
      </trkpt>
      <trkpt lat="44.36747" lon="5.96343">
        <ele>712.79998779297</ele>
        <time>2018-05-16T12:49:23.000Z</time>
      </trkpt>
      <trkpt lat="44.36753" lon="5.9632">
        <ele>712.79998779297</ele>
        <time>2018-05-16T12:49:44.000Z</time>
      </trkpt>
      <trkpt lat="44.36768" lon="5.96294">
        <ele>713</ele>
        <time>2018-05-16T12:50:11.000Z</time>
      </trkpt>
      <trkpt lat="44.36785" lon="5.96286">
        <ele>712.79998779297</ele>
        <time>2018-05-16T12:50:31.000Z</time>
      </trkpt>
      <trkpt lat="44.36801" lon="5.96268">
        <ele>714</ele>
        <time>2018-05-16T12:50:53.000Z</time>
      </trkpt>
      <trkpt lat="44.36818" lon="5.96264">
        <ele>714.59997558594</ele>
        <time>2018-05-16T12:51:12.000Z</time>
      </trkpt>
      <trkpt lat="44.36836" lon="5.96258">
        <ele>716.79998779297</ele>
        <time>2018-05-16T12:51:32.000Z</time>
      </trkpt>
      <trkpt lat="44.36843" lon="5.96252">
        <ele>720</ele>
        <time>2018-05-16T12:51:43.000Z</time>
      </trkpt>
      <trkpt lat="44.36852" lon="5.96236">
        <ele>723</ele>
        <time>2018-05-16T12:52:01.000Z</time>
      </trkpt>
      <trkpt lat="44.36864" lon="5.96206">
        <ele>725.79998779297</ele>
        <time>2018-05-16T12:52:23.000Z</time>
      </trkpt>
      <trkpt lat="44.36871" lon="5.96187">
        <ele>726.59997558594</ele>
        <time>2018-05-16T12:52:40.000Z</time>
      </trkpt>
      <trkpt lat="44.3687" lon="5.96186">
        <ele>729.20001220703</ele>
        <time>2018-05-16T12:53:22.000Z</time>
      </trkpt>
      <trkpt lat="44.36871" lon="5.96184">
        <ele>731.20001220703</ele>
        <time>2018-05-16T12:54:05.000Z</time>
      </trkpt>
      <trkpt lat="44.36869" lon="5.96184">
        <ele>731</ele>
        <time>2018-05-16T12:54:53.000Z</time>
      </trkpt>
      <trkpt lat="44.36872" lon="5.96187">
        <ele>730.79998779297</ele>
        <time>2018-05-16T12:55:34.000Z</time>
      </trkpt>
      <trkpt lat="44.36869" lon="5.96191">
        <ele>730</ele>
        <time>2018-05-16T12:56:37.000Z</time>
      </trkpt>
      <trkpt lat="44.36867" lon="5.9619">
        <ele>730.79998779297</ele>
        <time>2018-05-16T12:57:46.000Z</time>
      </trkpt>
      <trkpt lat="44.36869" lon="5.96186">
        <ele>731</ele>
        <time>2018-05-16T12:58:09.000Z</time>
      </trkpt>
      <trkpt lat="44.36869" lon="5.96183">
        <ele>730.79998779297</ele>
        <time>2018-05-16T12:58:35.000Z</time>
      </trkpt>
      <trkpt lat="44.36876" lon="5.96174">
        <ele>729.59997558594</ele>
        <time>2018-05-16T12:59:05.000Z</time>
      </trkpt>
      <trkpt lat="44.36887" lon="5.96167">
        <ele>727.40002441406</ele>
        <time>2018-05-16T12:59:26.000Z</time>
      </trkpt>
      <trkpt lat="44.36898" lon="5.96158">
        <ele>725.59997558594</ele>
        <time>2018-05-16T12:59:45.000Z</time>
      </trkpt>
      <trkpt lat="44.36899" lon="5.96156">
        <ele>725.20001220703</ele>
        <time>2018-05-16T12:59:47.000Z</time>
      </trkpt>
      <trkpt lat="44.36912" lon="5.96151">
        <ele>722.20001220703</ele>
        <time>2018-05-16T13:00:04.000Z</time>
      </trkpt>
      <trkpt lat="44.36919" lon="5.96148">
        <ele>720.20001220703</ele>
        <time>2018-05-16T13:00:22.000Z</time>
      </trkpt>
      <trkpt lat="44.36932" lon="5.96145">
        <ele>716.79998779297</ele>
        <time>2018-05-16T13:00:43.000Z</time>
      </trkpt>
      <trkpt lat="44.36944" lon="5.96136">
        <ele>711.20001220703</ele>
        <time>2018-05-16T13:01:04.000Z</time>
      </trkpt>
      <trkpt lat="44.36958" lon="5.96134">
        <ele>705</ele>
        <time>2018-05-16T13:01:26.000Z</time>
      </trkpt>
      <trkpt lat="44.36973" lon="5.96125">
        <ele>699.79998779297</ele>
        <time>2018-05-16T13:01:45.000Z</time>
      </trkpt>
      <trkpt lat="44.3698" lon="5.9611">
        <ele>695</ele>
        <time>2018-05-16T13:02:01.000Z</time>
      </trkpt>
      <trkpt lat="44.36981" lon="5.96098">
        <ele>695.59997558594</ele>
        <time>2018-05-16T13:02:18.000Z</time>
      </trkpt>
      <trkpt lat="44.36988" lon="5.96094">
        <ele>695.59997558594</ele>
        <time>2018-05-16T13:02:39.000Z</time>
      </trkpt>
      <trkpt lat="44.36995" lon="5.96092">
        <ele>695.59997558594</ele>
        <time>2018-05-16T13:02:51.000Z</time>
      </trkpt>
      <trkpt lat="44.37" lon="5.9609">
        <ele>695.40002441406</ele>
        <time>2018-05-16T13:02:57.000Z</time>
      </trkpt>
      <trkpt lat="44.37002" lon="5.96085">
        <ele>695.20001220703</ele>
        <time>2018-05-16T13:03:01.000Z</time>
      </trkpt>
      <trkpt lat="44.37003" lon="5.96079">
        <ele>694.79998779297</ele>
        <time>2018-05-16T13:03:07.000Z</time>
      </trkpt>
      <trkpt lat="44.36996" lon="5.96065">
        <ele>693.40002441406</ele>
        <time>2018-05-16T13:03:18.000Z</time>
      </trkpt>
      <trkpt lat="44.36995" lon="5.96062">
        <ele>693</ele>
        <time>2018-05-16T13:03:21.000Z</time>
      </trkpt>
      <trkpt lat="44.36996" lon="5.96039">
        <ele>689.79998779297</ele>
        <time>2018-05-16T13:03:37.000Z</time>
      </trkpt>
      <trkpt lat="44.36998" lon="5.96037">
        <ele>689.20001220703</ele>
        <time>2018-05-16T13:03:40.000Z</time>
      </trkpt>
      <trkpt lat="44.37011" lon="5.96048">
        <ele>685</ele>
        <time>2018-05-16T13:03:56.000Z</time>
      </trkpt>
      <trkpt lat="44.37021" lon="5.96062">
        <ele>682.40002441406</ele>
        <time>2018-05-16T13:04:12.000Z</time>
      </trkpt>
      <trkpt lat="44.37027" lon="5.96072">
        <ele>682</ele>
        <time>2018-05-16T13:04:20.000Z</time>
      </trkpt>
      <trkpt lat="44.37041" lon="5.96093">
        <ele>681.59997558594</ele>
        <time>2018-05-16T13:04:40.000Z</time>
      </trkpt>
      <trkpt lat="44.37057" lon="5.96117">
        <ele>678.79998779297</ele>
        <time>2018-05-16T13:05:01.000Z</time>
      </trkpt>
      <trkpt lat="44.37071" lon="5.96151">
        <ele>680.79998779297</ele>
        <time>2018-05-16T13:05:23.000Z</time>
      </trkpt>
      <trkpt lat="44.3708" lon="5.96173">
        <ele>682.20001220703</ele>
        <time>2018-05-16T13:05:39.000Z</time>
      </trkpt>
      <trkpt lat="44.37091" lon="5.96175">
        <ele>681.20001220703</ele>
        <time>2018-05-16T13:05:53.000Z</time>
      </trkpt>
      <trkpt lat="44.37098" lon="5.96151">
        <ele>681.40002441406</ele>
        <time>2018-05-16T13:06:10.000Z</time>
      </trkpt>
      <trkpt lat="44.37087" lon="5.96126">
        <ele>681.59997558594</ele>
        <time>2018-05-16T13:06:28.000Z</time>
      </trkpt>
      <trkpt lat="44.37076" lon="5.96098">
        <ele>680</ele>
        <time>2018-05-16T13:06:48.000Z</time>
      </trkpt>
      <trkpt lat="44.37068" lon="5.96079">
        <ele>677.79998779297</ele>
        <time>2018-05-16T13:07:03.000Z</time>
      </trkpt>
      <trkpt lat="44.3707" lon="5.96053">
        <ele>675.79998779297</ele>
        <time>2018-05-16T13:07:21.000Z</time>
      </trkpt>
      <trkpt lat="44.3709" lon="5.96039">
        <ele>671.20001220703</ele>
        <time>2018-05-16T13:07:42.000Z</time>
      </trkpt>
      <trkpt lat="44.37102" lon="5.96035">
        <ele>669.79998779297</ele>
        <time>2018-05-16T13:07:55.000Z</time>
      </trkpt>
      <trkpt lat="44.37116" lon="5.96029">
        <ele>668.59997558594</ele>
        <time>2018-05-16T13:08:07.000Z</time>
      </trkpt>
      <trkpt lat="44.37129" lon="5.96017">
        <ele>668.40002441406</ele>
        <time>2018-05-16T13:08:20.000Z</time>
      </trkpt>
      <trkpt lat="44.37136" lon="5.96007">
        <ele>669.40002441406</ele>
        <time>2018-05-16T13:08:28.000Z</time>
      </trkpt>
      <trkpt lat="44.3714" lon="5.96001">
        <ele>669.59997558594</ele>
        <time>2018-05-16T13:08:33.000Z</time>
      </trkpt>
      <trkpt lat="44.3715" lon="5.9598">
        <ele>669.79998779297</ele>
        <time>2018-05-16T13:08:50.000Z</time>
      </trkpt>
      <trkpt lat="44.37153" lon="5.95976">
        <ele>669.59997558594</ele>
        <time>2018-05-16T13:08:53.000Z</time>
      </trkpt>
      <trkpt lat="44.37163" lon="5.9596">
        <ele>668.59997558594</ele>
        <time>2018-05-16T13:09:06.000Z</time>
      </trkpt>
      <trkpt lat="44.37173" lon="5.95941">
        <ele>667.40002441406</ele>
        <time>2018-05-16T13:09:21.000Z</time>
      </trkpt>
      <trkpt lat="44.37174" lon="5.95937">
        <ele>667.40002441406</ele>
        <time>2018-05-16T13:09:25.000Z</time>
      </trkpt>
      <trkpt lat="44.37175" lon="5.95934">
        <ele>667.40002441406</ele>
        <time>2018-05-16T13:09:27.000Z</time>
      </trkpt>
      <trkpt lat="44.37182" lon="5.95923">
        <ele>666</ele>
        <time>2018-05-16T13:09:42.000Z</time>
      </trkpt>
      <trkpt lat="44.37195" lon="5.95903">
        <ele>664.20001220703</ele>
        <time>2018-05-16T13:09:59.000Z</time>
      </trkpt>
      <trkpt lat="44.37196" lon="5.95901">
        <ele>664.20001220703</ele>
        <time>2018-05-16T13:10:01.000Z</time>
      </trkpt>
      <trkpt lat="44.37206" lon="5.95882">
        <ele>663.20001220703</ele>
        <time>2018-05-16T13:10:16.000Z</time>
      </trkpt>
      <trkpt lat="44.37209" lon="5.95875">
        <ele>663</ele>
        <time>2018-05-16T13:10:22.000Z</time>
      </trkpt>
      <trkpt lat="44.3721" lon="5.95869">
        <ele>662.40002441406</ele>
        <time>2018-05-16T13:10:26.000Z</time>
      </trkpt>
      <trkpt lat="44.37209" lon="5.95841">
        <ele>660.20001220703</ele>
        <time>2018-05-16T13:10:46.000Z</time>
      </trkpt>
      <trkpt lat="44.372" lon="5.95829">
        <ele>659.79998779297</ele>
        <time>2018-05-16T13:10:58.000Z</time>
      </trkpt>
      <trkpt lat="44.37181" lon="5.9581">
        <ele>659.20001220703</ele>
        <time>2018-05-16T13:11:19.000Z</time>
      </trkpt>
      <trkpt lat="44.3717" lon="5.95788">
        <ele>654.79998779297</ele>
        <time>2018-05-16T13:11:39.000Z</time>
      </trkpt>
      <trkpt lat="44.37166" lon="5.95773">
        <ele>653.59997558594</ele>
        <time>2018-05-16T13:11:53.000Z</time>
      </trkpt>
      <trkpt lat="44.37167" lon="5.95767">
        <ele>653.59997558594</ele>
        <time>2018-05-16T13:11:57.000Z</time>
      </trkpt>
      <trkpt lat="44.37168" lon="5.95754">
        <ele>653.20001220703</ele>
        <time>2018-05-16T13:12:05.000Z</time>
      </trkpt>
      <trkpt lat="44.37174" lon="5.95749">
        <ele>652</ele>
        <time>2018-05-16T13:12:13.000Z</time>
      </trkpt>
      <trkpt lat="44.37182" lon="5.9575">
        <ele>650.59997558594</ele>
        <time>2018-05-16T13:12:19.000Z</time>
      </trkpt>
      <trkpt lat="44.37191" lon="5.95754">
        <ele>649.59997558594</ele>
        <time>2018-05-16T13:12:29.000Z</time>
      </trkpt>
      <trkpt lat="44.37179" lon="5.95743">
        <ele>646</ele>
        <time>2018-05-16T13:12:45.000Z</time>
      </trkpt>
      <trkpt lat="44.37185" lon="5.95727">
        <ele>641.59997558594</ele>
        <time>2018-05-16T13:13:02.000Z</time>
      </trkpt>
      <trkpt lat="44.3718" lon="5.95711">
        <ele>640</ele>
        <time>2018-05-16T13:13:20.000Z</time>
      </trkpt>
      <trkpt lat="44.3718" lon="5.9569">
        <ele>633.40002441406</ele>
        <time>2018-05-16T13:13:41.000Z</time>
      </trkpt>
      <trkpt lat="44.37176" lon="5.95659">
        <ele>629</ele>
        <time>2018-05-16T13:14:03.000Z</time>
      </trkpt>
      <trkpt lat="44.37183" lon="5.95618">
        <ele>624.20001220703</ele>
        <time>2018-05-16T13:14:32.000Z</time>
      </trkpt>
      <trkpt lat="44.37186" lon="5.956">
        <ele>622.79998779297</ele>
        <time>2018-05-16T13:14:43.000Z</time>
      </trkpt>
      <trkpt lat="44.37186" lon="5.95578">
        <ele>626.40002441406</ele>
        <time>2018-05-16T13:15:04.000Z</time>
      </trkpt>
      <trkpt lat="44.37183" lon="5.95566">
        <ele>630.79998779297</ele>
        <time>2018-05-16T13:15:22.000Z</time>
      </trkpt>
      <trkpt lat="44.3718" lon="5.9555">
        <ele>634.20001220703</ele>
        <time>2018-05-16T13:15:43.000Z</time>
      </trkpt>
      <trkpt lat="44.37182" lon="5.95548">
        <ele>637.20001220703</ele>
        <time>2018-05-16T13:16:04.000Z</time>
      </trkpt>
      <trkpt lat="44.37184" lon="5.95552">
        <ele>638.79998779297</ele>
        <time>2018-05-16T13:16:40.000Z</time>
      </trkpt>
    </trkseg>
  </trk>
</gpx>